BA280 / G-ZBKK 7700 Squawk Report (21st of February, 2018)

Aircraft B789 Reg No. G-ZBKK Age 2 years old
Model 787 Jet engines 2 First flight 07-06-16
Registered 23-06-16 Rollout N/A Delivered 23-06-16
Construction No. 38627 Line No. 0442 Series 9
ADSHEX 406F77 Airline name British Airways Owner N/A
Airfield based Heathrow~Gtr London~G First tracked 2016-06-07 17:36:07
Time Lat Lon Altitude Heading Speed Vertical Rate
2018-02-21 11:33:53 GMT 51.477493 -0.480652 -325 89 149 -192
2018-02-21 11:33:45 GMT 51.477467 -0.490036 -225 90 149 -832
2018-02-21 11:33:42 GMT 51.477467 -0.493164 -150 89 149 -896
2018-02-21 11:33:33 GMT 51.477448 -0.504258 25 90 148 -832
2018-02-21 11:33:25 GMT 51.477417 -0.512695 50 89 149 -832
2018-02-21 11:33:21 GMT 51.477417 -0.517578 125 89 150 -704
2018-02-21 11:33:14 GMT 51.477356 -0.524523 200 89 150 -896
2018-02-21 11:33:11 GMT 51.477356 -0.527863 250 89 150 -768
2018-02-21 11:33:04 GMT 51.477325 -0.535965 350 89 150 -1024
2018-02-21 11:33:01 GMT 51.477310 -0.538924 425 89 149 -768
2018-02-21 11:32:58 GMT 51.477280 -0.541687 425 89 149 -768
2018-02-21 11:32:54 GMT 51.477264 -0.546867 475 89 148 -832
2018-02-21 11:32:51 GMT 51.477264 -0.550653 575 89 148 -832
2018-02-21 11:32:45 GMT 51.477219 -0.556740 625 89 148 -832
2018-02-21 11:32:42 GMT 51.477219 -0.560080 700 89 149 -896
2018-02-21 11:32:39 GMT 51.477219 -0.562678 675 89 149 -896
2018-02-21 11:32:36 GMT 51.477173 -0.566019 750 89 149 -896
2018-02-21 11:32:33 GMT 51.477173 -0.569285 775 89 150 -768
2018-02-21 11:32:30 GMT 51.477173 -0.572848 825 89 150 -768
2018-02-21 11:32:27 GMT 51.477173 -0.576411 875 89 150 -768
2018-02-21 11:32:23 GMT 51.477139 -0.580978 925 89 150 -832
2018-02-21 11:32:19 GMT 51.477093 -0.584946 1,000 89 150 -832
2018-02-21 11:32:16 GMT 51.477081 -0.589699 1,025 89 150 -960
2018-02-21 11:32:13 GMT 51.477081 -0.592148 1,075 89 151 -832
2018-02-21 11:32:08 GMT 51.477047 -0.596771 1,150 89 155 -960
2018-02-21 11:32:05 GMT 51.477036 -0.602021 1,200 89 153 -960
2018-02-21 11:32:01 GMT 51.476997 -0.605545 1,225 89 155 -960
2018-02-21 11:31:57 GMT 51.476997 -0.609436 1,300 89 156 -960
2018-02-21 11:31:53 GMT 51.476990 -0.614863 1,375 89 156 -896
2018-02-21 11:31:50 GMT 51.476952 -0.617294 1,375 89 156 -896
2018-02-21 11:31:47 GMT 51.476944 -0.620876 1,600 89 155 -960
2018-02-21 11:31:43 GMT 51.476906 -0.626755 1,500 89 156 -832
2018-02-21 11:31:40 GMT 51.476906 -0.629120 1,525 89 156 -896
2018-02-21 11:31:36 GMT 51.476906 -0.633469 1,600 89 155 -960
2018-02-21 11:31:33 GMT 51.476852 -0.637281 1,650 89 155 -896
2018-02-21 11:31:30 GMT 51.476860 -0.641022 1,675 89 155 -896
2018-02-21 11:31:26 GMT 51.476852 -0.645076 1,750 89 156 -896
2018-02-21 11:31:23 GMT 51.476807 -0.649678 1,925 89 156 -832
2018-02-21 11:31:20 GMT 51.476814 -0.652542 1,875 89 155 -896
2018-02-21 11:31:17 GMT 51.476761 -0.656359 1,900 89 156 -832
2018-02-21 11:31:13 GMT 51.476761 -0.660739 1,925 89 156 -896
2018-02-21 11:31:10 GMT 51.476761 -0.664153 2,175 89 155 -896
2018-02-21 11:31:07 GMT 51.476715 -0.667642 2,050 89 155 -896
2018-02-21 11:31:03 GMT 51.476719 -0.672379 2,125 89 156 -896
2018-02-21 11:31:00 GMT 51.476669 -0.675956 2,125 89 156 -896
2018-02-21 11:30:55 GMT 51.476624 -0.681449 2,200 89 156 -896
2018-02-21 11:30:52 GMT 51.476627 -0.685043 2,250 89 156 -896
2018-02-21 11:30:49 GMT 51.476627 -0.687790 2,300 89 156 -896
2018-02-21 11:30:45 GMT 51.476582 -0.693130 2,350 89 155 -896
2018-02-21 11:30:42 GMT 51.476582 -0.697250 2,525 89 154 -896
2018-02-21 11:30:39 GMT 51.476532 -0.699636 2,450 89 152 -768
2018-02-21 11:30:35 GMT 51.476532 -0.704164 2,500 89 154 -768
2018-02-21 11:30:32 GMT 51.476486 -0.707703 2,550 89 152 -768
2018-02-21 11:30:29 GMT 51.476486 -0.711517 2,575 89 152 -768
2018-02-21 11:30:24 GMT 51.476440 -0.716248 2,675 89 151 -896
2018-02-21 11:30:21 GMT 51.476440 -0.720421 2,700 89 151 -896
2018-02-21 11:30:18 GMT 51.476395 -0.723539 2,725 89 152 -896
2018-02-21 11:30:15 GMT 51.476395 -0.726953 2,775 89 152 -896
2018-02-21 11:30:12 GMT 51.476395 -0.729752 2,850 89 153 -896
2018-02-21 11:30:09 GMT 51.476349 -0.733566 2,875 89 153 -896
2018-02-21 11:30:06 GMT 51.476349 -0.737457 2,950 89 154 -896
2018-02-21 11:30:03 GMT 51.476349 -0.740464 2,975 89 154 -832
2018-02-21 11:30:00 GMT 51.476303 -0.744324 3,050 89 155 -896
2018-02-21 11:29:57 GMT 51.476257 -0.747813 3,075 89 155 -960
2018-02-21 11:29:53 GMT 51.476254 -0.751801 3,125 89 182 -1024
2018-02-21 11:29:49 GMT 51.476212 -0.756275 3,225 89 157 -960
2018-02-21 11:29:46 GMT 51.476208 -0.760574 3,250 89 157 -960
2018-02-21 11:29:43 GMT 51.476166 -0.763476 3,275 89 157 -960
2018-02-21 11:29:40 GMT 51.476166 -0.766964 3,325 89 157 -960
2018-02-21 11:29:37 GMT 51.476116 -0.770340 3,375 88 157 -896
2018-02-21 11:29:34 GMT 51.476116 -0.773773 3,400 88 157 -832
2018-02-21 11:29:30 GMT 51.476028 -0.779287 3,475 89 159 -832
2018-02-21 11:29:27 GMT 51.476028 -0.782330 3,525 89 161 -640
2018-02-21 11:29:23 GMT 51.475975 -0.787659 3,550 89 162 -768
2018-02-21 11:29:20 GMT 51.475937 -0.790199 3,575 89 166 -832
2018-02-21 11:29:17 GMT 51.475929 -0.794296 3,625 89 168 -832
2018-02-21 11:29:12 GMT 51.475845 -0.800963 3,725 89 175 -960
2018-02-21 11:29:09 GMT 51.475800 -0.805639 3,750 89 177 -1024
2018-02-21 11:29:05 GMT 51.475788 -0.810013 3,825 89 180 -1152
2018-02-21 11:29:02 GMT 51.475742 -0.815048 4,175 94 183 -1280
2018-02-21 11:28:59 GMT 51.475754 -0.819001 3,950 89 183 -1024
2018-02-21 11:28:56 GMT 51.475754 -0.821673 4,125 90 184 -1152
2018-02-21 11:28:53 GMT 51.475742 -0.825882 4,025 90 184 -1152
2018-02-21 11:28:50 GMT 51.475788 -0.830002 4,125 91 184 -1216
2018-02-21 11:28:47 GMT 51.475834 -0.834579 4,175 92 184 -1280
2018-02-21 11:28:42 GMT 51.475975 -0.839767 4,525 101 183 -1344
2018-02-21 11:28:39 GMT 51.476257 -0.845056 4,375 96 184 -1280
2018-02-21 11:28:36 GMT 51.476898 -0.852331 4,450 102 183 -1280
2018-02-21 11:28:31 GMT 51.477417 -0.855637 4,525 106 184 -1216
2018-02-21 11:28:28 GMT 51.478271 -0.859680 4,600 115 185 -1024
2018-02-21 11:28:24 GMT 51.479652 -0.864563 4,675 117 186 -896
2018-02-21 11:28:21 GMT 51.480835 -0.868068 4,700 117 186 -896
2018-02-21 11:28:18 GMT 51.481979 -0.871658 4,750 117 185 -768
2018-02-21 11:28:15 GMT 51.483608 -0.876465 4,800 117 185 -704
2018-02-21 11:28:12 GMT 51.484589 -0.879364 4,825 118 184 -448
2018-02-21 11:28:09 GMT 51.485641 -0.882692 4,850 118 184 -448
2018-02-21 11:28:06 GMT 51.486786 -0.886033 4,875 117 183 -384
2018-02-21 11:28:03 GMT 51.488079 -0.889969 4,900 117 182 -448
2018-02-21 11:28:00 GMT 51.489521 -0.894318 4,900 117 182 -448
2018-02-21 11:27:56 GMT 51.490730 -0.897903 4,925 118 182 -384
2018-02-21 11:27:52 GMT 51.492130 -0.902176 5,000 132 186 -384
2018-02-21 11:27:49 GMT 51.493385 -0.905991 5,000 118 181 -448
2018-02-21 11:27:46 GMT 51.494843 -0.910381 5,000 118 181 -448
2018-02-21 11:27:42 GMT 51.496857 -0.916319 5,025 118 180 -448
2018-02-21 11:27:39 GMT 51.497623 -0.918503 5,050 146 190 -448
2018-02-21 11:27:36 GMT 51.498878 -0.922318 5,075 118 179 -448
2018-02-21 11:27:32 GMT 51.500320 -0.926514 5,075 118 179 -384
2018-02-21 11:27:29 GMT 51.501572 -0.930126 5,100 118 179 -384
2018-02-21 11:27:26 GMT 51.503586 -0.935916 5,125 184 202 -576
2018-02-21 11:27:23 GMT 51.503815 -0.936508 5,150 120 180 -384
2018-02-21 11:27:20 GMT 51.505280 -0.940519 5,175 122 181 -448
2018-02-21 11:27:17 GMT 51.506927 -0.944602 5,200 124 183 -384
2018-02-21 11:27:14 GMT 51.508469 -0.947952 5,200 129 184 -448
2018-02-21 11:27:10 GMT 51.510609 -0.951920 5,225 136 187 -384
2018-02-21 11:27:07 GMT 51.512329 -0.954400 5,275 149 191 -448
2018-02-21 11:27:04 GMT 51.514343 -0.956701 5,275 152 192 -448
2018-02-21 11:27:01 GMT 51.516102 -0.958252 5,275 157 193 -512
2018-02-21 11:26:58 GMT 51.518990 -0.960083 5,325 166 196 -512
2018-02-21 11:26:55 GMT 51.521595 -0.961151 5,375 184 202 -576
2018-02-21 11:26:51 GMT 51.526108 -0.961898 5,400 183 202 -576
2018-02-21 11:26:48 GMT 51.528206 -0.961838 5,450 184 202 -576
2018-02-21 11:26:45 GMT 51.530731 -0.961675 5,475 184 202 -576
2018-02-21 11:26:42 GMT 51.534397 -0.961380 5,550 209 210 -1024
2018-02-21 11:26:39 GMT 51.536728 -0.961081 5,500 186 203 -640
2018-02-21 11:26:36 GMT 51.540031 -0.960617 5,550 190 203 -640
2018-02-21 11:26:33 GMT 51.542175 -0.960190 5,550 204 208 -960
2018-02-21 11:26:30 GMT 51.545517 -0.959299 5,575 192 204 -704
2018-02-21 11:26:27 GMT 51.547432 -0.958557 5,650 202 207 -960
2018-02-21 11:26:24 GMT 51.550781 -0.956701 5,875 225 213 -960
2018-02-21 11:26:21 GMT 51.553070 -0.954994 5,750 216 212 -960
2018-02-21 11:26:17 GMT 51.556000 -0.951876 5,775 218 212 -960
2018-02-21 11:26:13 GMT 51.559433 -0.946680 5,900 250 216 -1024
2018-02-21 11:26:09 GMT 51.561951 -0.941335 5,950 243 216 -1024
2018-02-21 11:26:06 GMT 51.562958 -0.938515 5,975 260 216 -960
2018-02-21 11:26:03 GMT 51.564144 -0.934296 6,000 252 215 -1024
2018-02-21 11:26:00 GMT 51.565201 -0.928939 6,125 259 216 -896
2018-02-21 11:25:57 GMT 51.565979 -0.922703 6,150 266 228 -512
2018-02-21 11:25:54 GMT 51.566254 -0.919511 6,150 265 218 -832
2018-02-21 11:25:51 GMT 51.566528 -0.914686 6,200 266 218 -704
2018-02-21 11:25:48 GMT 51.566845 -0.908661 6,225 266 219 -576
2018-02-21 11:25:45 GMT 51.567123 -0.903329 6,275 266 222 -576
2018-02-21 11:25:42 GMT 51.567356 -0.899200 6,300 266 225 -576
2018-02-21 11:25:39 GMT 51.567497 -0.895844 6,325 266 225 -576
2018-02-21 11:25:36 GMT 51.567810 -0.890041 6,350 266 227 -512
2018-02-21 11:25:33 GMT 51.568104 -0.884476 6,375 266 230 -448
2018-02-21 11:25:30 GMT 51.568451 -0.877496 6,400 266 232 -448
2018-02-21 11:25:27 GMT 51.568615 -0.873871 6,400 266 232 -384
2018-02-21 11:25:24 GMT 51.568909 -0.867771 6,425 266 237 -448
2018-02-21 11:25:21 GMT 51.569183 -0.862501 6,450 266 241 -384
2018-02-21 11:25:17 GMT 51.569412 -0.857082 6,475 266 244 -448
2018-02-21 11:25:14 GMT 51.569733 -0.850830 6,475 266 245 -576
2018-02-21 11:25:11 GMT 51.569916 -0.846987 6,500 266 247 -512
2018-02-21 11:25:08 GMT 51.570244 -0.839844 6,525 266 249 -512
2018-02-21 11:25:04 GMT 51.570602 -0.832289 6,550 266 251 -512
2018-02-21 11:25:01 GMT 51.570831 -0.827389 6,675 266 253 -576
2018-02-21 11:24:57 GMT 51.571220 -0.819321 6,650 266 261 -576
2018-02-21 11:24:54 GMT 51.571518 -0.813805 6,675 266 261 -576
2018-02-21 11:24:51 GMT 51.571827 -0.807114 6,700 266 259 -576
2018-02-21 11:24:48 GMT 51.572060 -0.802536 6,750 266 261 -576
2018-02-21 11:24:45 GMT 51.572384 -0.795593 6,750 266 262 -640
2018-02-21 11:24:42 GMT 51.572662 -0.790176 6,800 266 262 -960
2018-02-21 11:24:39 GMT 51.572891 -0.785300 6,875 266 262 -960
2018-02-21 11:24:36 GMT 51.573177 -0.779266 6,925 266 262 -960
2018-02-21 11:24:33 GMT 51.573441 -0.773571 6,950 266 261 -960
2018-02-21 11:24:29 GMT 51.573853 -0.765480 7,000 266 260 -960
2018-02-21 11:24:26 GMT 51.574108 -0.760269 7,025 266 258 -960
2018-02-21 11:24:23 GMT 51.574402 -0.753900 7,075 266 257 -960
2018-02-21 11:24:20 GMT 51.574677 -0.747070 7,125 267 258 -1024
2018-02-21 11:24:17 GMT 51.574852 -0.743027 7,200 267 259 -960
2018-02-21 11:24:14 GMT 51.575089 -0.736307 7,225 267 259 -960
2018-02-21 11:24:11 GMT 51.575272 -0.730743 7,300 267 259 -960
2018-02-21 11:24:08 GMT 51.575500 -0.724430 7,325 267 259 -1024
2018-02-21 11:24:05 GMT 51.575642 -0.720367 7,400 267 260 -1024
2018-02-21 11:24:02 GMT 51.575912 -0.712849 7,475 267 260 -960
2018-02-21 11:23:59 GMT 51.576111 -0.706100 7,500 267 261 -960
2018-02-21 11:23:56 GMT 51.576202 -0.703430 7,525 267 261 -960
2018-02-21 11:23:53 GMT 51.576462 -0.696221 7,650 267 262 -960
2018-02-21 11:23:49 GMT 51.576714 -0.689087 7,650 267 262 -960
2018-02-21 11:23:46 GMT 51.576920 -0.683008 7,750 267 262 -960
2018-02-21 11:23:42 GMT 51.577179 -0.675812 7,750 267 262 -896
2018-02-21 11:23:39 GMT 51.577457 -0.667648 7,825 267 262 -896
2018-02-21 11:23:36 GMT 51.577644 -0.663757 7,900 267 262 -768
2018-02-21 11:23:33 GMT 51.577877 -0.657196 7,900 267 262 -768
2018-02-21 11:23:30 GMT 51.578110 -0.651163 7,925 267 261 -576
2018-02-21 11:23:27 GMT 51.578339 -0.646115 7,975 267 261 -64
2018-02-21 11:23:24 GMT 51.578568 -0.639879 7,975 267 261 -384
2018-02-21 11:23:21 GMT 51.578854 -0.633163 8,000 267 261 -64
2018-02-21 11:23:18 GMT 51.579025 -0.629116 8,000 267 260 -64
2018-02-21 11:23:15 GMT 51.579273 -0.623093 8,000 265 261 -64
2018-02-21 11:23:12 GMT 51.579620 -0.615977 8,000 266 260 -64
2018-02-21 11:23:09 GMT 51.579834 -0.611496 8,000 265 261 -64
2018-02-21 11:23:06 GMT 51.580124 -0.606327 8,000 263 261 -64
2018-02-21 11:23:03 GMT 51.580669 -0.599518 8,000 257 262 0
2018-02-21 11:23:00 GMT 51.581268 -0.593559 8,000 250 263 -64
2018-02-21 11:22:57 GMT 51.581928 -0.588837 8,000 248 263 -64
2018-02-21 11:22:54 GMT 51.583000 -0.583267 8,000 182 257 0
2018-02-21 11:22:50 GMT 51.585205 -0.575223 8,000 235 262 0
2018-02-21 11:22:47 GMT 51.586807 -0.570844 8,000 233 263 -64
2018-02-21 11:22:44 GMT 51.588455 -0.566984 8,000 227 263 0
2018-02-21 11:22:41 GMT 51.591938 -0.560684 8,000 218 263 -64
2018-02-21 11:22:38 GMT 51.594177 -0.557408 8,000 220 263 0
2018-02-21 11:22:35 GMT 51.597061 -0.553845 8,000 205 262 64
2018-02-21 11:22:31 GMT 51.601913 -0.549316 8,000 203 262 64
2018-02-21 11:22:28 GMT 51.605026 -0.547164 8,000 199 261 64
2018-02-21 11:22:24 GMT 51.608963 -0.545159 8,000 193 259 -64
2018-02-21 11:22:21 GMT 51.613071 -0.543671 8,000 173 260 0
2018-02-21 11:22:18 GMT 51.617203 -0.542932 8,000 184 258 -64
2018-02-21 11:22:15 GMT 51.619728 -0.542679 8,000 182 258 -64
2018-02-21 11:22:12 GMT 51.624115 -0.542561 8,000 181 258 -64
2018-02-21 11:22:09 GMT 51.626617 -0.542450 8,000 181 259 -64
2018-02-21 11:22:06 GMT 51.630203 -0.542450 8,000 181 259 -64
2018-02-21 11:22:03 GMT 51.634140 -0.542339 8,000 181 260 0
2018-02-21 11:22:00 GMT 51.637882 -0.542297 8,000 182 261 64
2018-02-21 11:21:57 GMT 51.641468 -0.542221 8,000 181 260 64
2018-02-21 11:21:54 GMT 51.645100 -0.542145 8,000 177 261 0
2018-02-21 11:21:51 GMT 51.648560 -0.542042 8,000 181 260 -64
2018-02-21 11:21:48 GMT 51.651569 -0.541992 8,000 181 260 -64
2018-02-21 11:21:45 GMT 51.656021 -0.541819 8,000 182 261 0
2018-02-21 11:21:42 GMT 51.659637 -0.541745 8,000 182 261 0
2018-02-21 11:21:39 GMT 51.663628 -0.541611 8,000 182 261 64
2018-02-21 11:21:36 GMT 51.666641 -0.541522 8,000 182 261 64
2018-02-21 11:21:32 GMT 51.672054 -0.541382 8,000 182 261 -64
2018-02-21 11:21:28 GMT 51.676197 -0.541229 8,000 179 262 -64
2018-02-21 11:21:25 GMT 51.682571 -0.541002 8,000 181 262 -64
2018-02-21 11:21:22 GMT 51.683689 -0.541000 8,000 181 262 -64
2018-02-21 11:21:19 GMT 51.687927 -0.540928 8,000 179 262 -64
2018-02-21 11:21:16 GMT 51.691418 -0.540924 8,000 179 262 -64
2018-02-21 11:21:13 GMT 51.695892 -0.541077 8,000 177 262 -64
2018-02-21 11:21:10 GMT 51.698914 -0.541229 8,000 176 261 0
2018-02-21 11:21:07 GMT 51.702080 -0.541534 8,000 172 260 0
2018-02-21 11:21:04 GMT 51.705551 -0.542264 8,000 160 257 0
2018-02-21 11:21:01 GMT 51.708504 -0.543060 8,000 162 257 0
2018-02-21 11:20:58 GMT 51.713196 -0.545234 8,000 159 257 0
2018-02-21 11:20:55 GMT 51.717442 -0.548172 8,000 132 249 0
2018-02-21 11:20:51 GMT 51.718964 -0.549539 8,000 149 254 64
2018-02-21 11:20:48 GMT 51.722672 -0.553473 8,000 139 251 0
2018-02-21 11:20:45 GMT 51.725262 -0.556946 7,975 130 249 0
2018-02-21 11:20:42 GMT 51.727730 -0.560989 8,000 121 246 -64
2018-02-21 11:20:39 GMT 51.729675 -0.564831 8,000 118 245 -64
2018-02-21 11:20:36 GMT 51.732338 -0.571060 8,000 118 245 -64
2018-02-21 11:20:33 GMT 51.733658 -0.574704 8,000 117 245 0
2018-02-21 11:20:30 GMT 51.734993 -0.578766 8,000 117 245 -64
2018-02-21 11:20:27 GMT 51.736855 -0.584641 8,000 116 245 0
2018-02-21 11:20:24 GMT 51.738297 -0.589218 8,000 116 245 0
2018-02-21 11:20:21 GMT 51.740387 -0.595860 8,000 116 245 -64
2018-02-21 11:20:18 GMT 51.741394 -0.599126 8,000 116 244 0
2018-02-21 11:20:15 GMT 51.743279 -0.605164 8,000 116 243 -64
2018-02-21 11:20:11 GMT 51.744862 -0.610352 8,000 116 244 -64
2018-02-21 11:20:08 GMT 51.746582 -0.615921 8,000 116 243 0
2018-02-21 11:20:05 GMT 51.747620 -0.619317 8,000 116 243 -64
2018-02-21 11:20:02 GMT 51.749981 -0.626984 8,000 116 244 -64
2018-02-21 11:19:59 GMT 51.751099 -0.630569 8,000 117 245 -64
2018-02-21 11:19:56 GMT 51.752563 -0.635277 8,000 116 244 -64
2018-02-21 11:19:53 GMT 51.754074 -0.640176 8,000 116 245 -64
2018-02-21 11:19:50 GMT 51.755848 -0.645828 8,000 117 245 -64
2018-02-21 11:19:47 GMT 51.757141 -0.649901 8,000 117 246 -64
2018-02-21 11:19:44 GMT 51.758743 -0.654800 8,000 116 245 0
2018-02-21 11:19:41 GMT 51.760456 -0.660172 8,000 109 243 -64
2018-02-21 11:19:38 GMT 51.761387 -0.663452 8,000 110 244 -64
2018-02-21 11:19:35 GMT 51.762596 -0.668182 8,000 107 243 -64
2018-02-21 11:19:32 GMT 51.763760 -0.674820 8,000 101 241 -64
2018-02-21 11:19:29 GMT 51.764366 -0.679016 8,000 96 241 -64
2018-02-21 11:19:26 GMT 51.764832 -0.685680 8,000 85 239 0
2018-02-21 11:19:22 GMT 51.764877 -0.694588 8,000 85 239 0
2018-02-21 11:19:19 GMT 51.764736 -0.697250 8,000 48 238 0
2018-02-21 11:19:16 GMT 51.763641 -0.706911 8,000 65 239 -64
2018-02-21 11:19:13 GMT 51.763275 -0.709286 8,000 70 238 -64
2018-02-21 11:19:10 GMT 51.762226 -0.714188 8,000 48 238 0
2018-02-21 11:19:07 GMT 51.761200 -0.718079 8,000 64 238 64
2018-02-21 11:19:04 GMT 51.759663 -0.722809 8,000 51 237 0
2018-02-21 11:19:01 GMT 51.757664 -0.727997 8,000 50 237 -64
2018-02-21 11:18:57 GMT 51.755241 -0.733032 8,000 36 235 -64
2018-02-21 11:18:54 GMT 51.752930 -0.737049 8,000 41 236 -64
2018-02-21 11:18:50 GMT 51.749863 -0.741503 8,000 35 236 0
2018-02-21 11:18:47 GMT 51.747143 -0.744781 8,000 21 237 0
2018-02-21 11:18:44 GMT 51.744350 -0.747604 8,000 26 237 0
2018-02-21 11:18:41 GMT 51.741276 -0.750198 8,000 297 254 0
2018-02-21 11:18:38 GMT 51.737732 -0.752563 8,000 18 238 0
2018-02-21 11:18:35 GMT 51.735214 -0.753825 8,000 13 238 -64
2018-02-21 11:18:32 GMT 51.731873 -0.755157 8,000 8 239 -64
2018-02-21 11:18:29 GMT 51.728565 -0.755920 8,000 5 240 -64
2018-02-21 11:18:26 GMT 51.723587 -0.756349 8,000 359 241 -64
2018-02-21 11:18:23 GMT 51.720795 -0.756149 8,000 356 241 0
2018-02-21 11:18:20 GMT 51.719025 -0.755844 8,000 351 242 0
2018-02-21 11:18:17 GMT 51.714603 -0.754623 8,000 337 244 0
2018-02-21 11:18:14 GMT 51.712097 -0.753528 8,000 313 250 0
2018-02-21 11:18:11 GMT 51.708527 -0.751450 8,000 337 244 0
2018-02-21 11:18:08 GMT 51.706127 -0.749741 8,000 331 246 0
2018-02-21 11:18:05 GMT 51.702621 -0.746699 8,000 327 247 0
2018-02-21 11:18:02 GMT 51.699783 -0.743656 8,000 309 251 64
2018-02-21 11:17:59 GMT 51.697144 -0.740356 8,000 309 251 64
2018-02-21 11:17:56 GMT 51.693794 -0.735245 8,000 309 251 64
2018-02-21 11:17:52 GMT 51.691837 -0.731506 8,000 304 253 -64
2018-02-21 11:17:49 GMT 51.689529 -0.726137 8,000 301 253 -64
2018-02-21 11:17:46 GMT 51.688251 -0.722733 8,000 299 255 -64
2018-02-21 11:17:43 GMT 51.685364 -0.713814 8,000 297 255 -64
2018-02-21 11:17:39 GMT 51.683899 -0.708989 8,000 297 255 0
2018-02-21 11:17:36 GMT 51.682526 -0.704610 8,000 297 254 0
2018-02-21 11:17:33 GMT 51.680992 -0.699692 8,000 297 254 0
2018-02-21 11:17:30 GMT 51.678726 -0.692361 8,000 297 254 0
2018-02-21 11:17:27 GMT 51.677902 -0.689689 8,000 297 254 0
2018-02-21 11:17:24 GMT 51.675888 -0.683231 8,000 297 254 0
2018-02-21 11:17:21 GMT 51.674568 -0.679016 8,000 297 254 0
2018-02-21 11:17:18 GMT 51.672958 -0.673729 8,000 297 254 0
2018-02-21 11:17:15 GMT 51.671635 -0.669479 8,000 297 254 0
2018-02-21 11:17:11 GMT 51.669540 -0.662689 8,000 283 259 -832
2018-02-21 11:17:08 GMT 51.667740 -0.656730 8,000 297 255 -64
2018-02-21 11:17:05 GMT 51.666096 -0.651474 8,000 297 254 -64
2018-02-21 11:17:02 GMT 51.664558 -0.646362 8,000 249 268 -1088
2018-02-21 11:16:59 GMT 51.662788 -0.640564 8,000 297 256 -256
2018-02-21 11:16:55 GMT 51.661160 -0.635147 8,000 297 255 -192
2018-02-21 11:16:52 GMT 51.659252 -0.629044 8,000 297 256 -256
2018-02-21 11:16:49 GMT 51.656784 -0.621185 8,025 297 256 -256
2018-02-21 11:16:46 GMT 51.655945 -0.618439 8,025 297 255 -256
2018-02-21 11:16:43 GMT 51.654510 -0.613453 8,025 288 256 -512
2018-02-21 11:16:40 GMT 51.653481 -0.609436 8,250 251 268 -1088
2018-02-21 11:16:37 GMT 51.652176 -0.602493 8,075 281 259 -896
2018-02-21 11:16:34 GMT 51.651615 -0.598373 8,125 278 261 -1152
2018-02-21 11:16:31 GMT 51.651150 -0.592194 8,225 272 262 -1216
2018-02-21 11:16:27 GMT 51.651031 -0.585022 8,250 266 263 -1152
2018-02-21 11:16:24 GMT 51.651665 -0.575485 8,325 259 265 -1152
2018-02-21 11:16:21 GMT 51.652176 -0.571809 8,400 254 267 -1088
2018-02-21 11:16:18 GMT 51.652966 -0.567017 8,400 251 268 -1088
2018-02-21 11:16:15 GMT 51.654602 -0.560080 8,500 234 272 -1152
2018-02-21 11:16:12 GMT 51.655563 -0.556814 8,550 239 272 -1024
2018-02-21 11:16:09 GMT 51.657898 -0.550133 8,575 236 272 -1088
2018-02-21 11:16:06 GMT 51.659576 -0.546341 8,650 223 274 -1344
2018-02-21 11:16:03 GMT 51.662369 -0.541077 8,725 223 274 -1344
2018-02-21 11:16:00 GMT 51.665115 -0.536880 8,775 221 275 -1408
2018-02-21 11:15:57 GMT 51.667492 -0.533752 8,850 212 275 -1408
2018-02-21 11:15:54 GMT 51.671726 -0.529251 8,900 208 275 -1408
2018-02-21 11:15:51 GMT 51.674103 -0.527270 9,000 201 275 -1344
2018-02-21 11:15:48 GMT 51.678246 -0.524521 9,075 166 270 -1280
2018-02-21 11:15:45 GMT 51.681362 -0.522919 9,250 163 270 -1216
2018-02-21 11:15:42 GMT 51.686390 -0.521393 9,175 187 274 -1408
2018-02-21 11:15:39 GMT 51.690536 -0.520811 9,425 158 269 -1024
2018-02-21 11:15:35 GMT 51.694107 -0.520886 9,375 166 270 -1280
2018-02-21 11:15:31 GMT 51.699097 -0.521851 9,625 132 263 -1088
2018-02-21 11:15:28 GMT 51.702869 -0.523224 9,475 153 267 -1024
2018-02-21 11:15:25 GMT 51.708317 -0.526276 9,550 153 267 -1024
2018-02-21 11:15:22 GMT 51.709991 -0.527566 9,650 145 266 -1088
2018-02-21 11:15:19 GMT 51.713764 -0.530930 9,650 133 263 -1088
2018-02-21 11:15:16 GMT 51.716263 -0.533802 9,675 141 266 -1152
2018-02-21 11:15:13 GMT 51.719971 -0.538998 9,775 132 263 -1088
2018-02-21 11:15:10 GMT 51.721260 -0.541077 9,850 131 264 -1088
2018-02-21 11:15:07 GMT 51.723770 -0.545605 9,875 131 264 -1088
2018-02-21 11:15:04 GMT 51.726379 -0.550281 10,075 131 267 -832
2018-02-21 11:15:00 GMT 51.729309 -0.555552 10,000 131 264 -1024
2018-02-21 11:14:57 GMT 51.732151 -0.560760 10,050 131 266 -896
2018-02-21 11:14:54 GMT 51.734760 -0.565491 10,050 131 266 -832
2018-02-21 11:14:51 GMT 51.737553 -0.570526 10,200 131 271 -768
2018-02-21 11:14:48 GMT 51.739563 -0.574258 10,300 131 269 -704
2018-02-21 11:14:44 GMT 51.745281 -0.584641 10,325 131 274 -1024
2018-02-21 11:14:41 GMT 51.746117 -0.586166 10,300 131 271 -832
2018-02-21 11:14:38 GMT 51.747894 -0.589327 10,375 131 275 -1088
2018-02-21 11:14:34 GMT 51.751236 -0.595414 10,300 131 274 -1024
2018-02-21 11:14:31 GMT 51.754303 -0.600833 10,400 131 275 -1152
2018-02-21 11:14:28 GMT 51.757370 -0.606327 10,450 131 275 -1216
2018-02-21 11:14:25 GMT 51.758743 -0.608776 10,500 131 275 -1280
2018-02-21 11:14:22 GMT 51.760876 -0.612640 10,525 131 275 -1472
2018-02-21 11:14:19 GMT 51.764877 -0.619763 10,700 131 275 -1600
2018-02-21 11:14:16 GMT 51.767075 -0.623771 10,775 131 275 -1600
2018-02-21 11:14:13 GMT 51.769718 -0.628510 10,825 131 274 -1600
2018-02-21 11:14:08 GMT 51.773346 -0.635054 10,925 131 273 -1600
2018-02-21 11:14:05 GMT 51.776550 -0.640770 11,000 131 273 -1600
2018-02-21 11:14:02 GMT 51.778145 -0.643692 11,200 131 272 -1280
2018-02-21 11:13:59 GMT 51.781219 -0.649307 11,125 131 272 -1344
2018-02-21 11:13:56 GMT 51.783417 -0.653241 11,225 131 271 -1280
2018-02-21 11:13:53 GMT 51.786667 -0.659180 11,275 131 272 -1280
2018-02-21 11:13:49 GMT 51.788853 -0.663071 11,350 132 273 -1152
2018-02-21 11:13:46 GMT 51.791473 -0.667791 11,425 132 273 -1152
2018-02-21 11:13:43 GMT 51.794861 -0.673803 11,450 132 273 -1152
2018-02-21 11:13:40 GMT 51.797836 -0.679169 11,600 131 275 -1152
2018-02-21 11:13:37 GMT 51.799561 -0.682144 11,625 131 274 -1152
2018-02-21 11:13:34 GMT 51.801682 -0.685977 11,650 131 274 -1152
2018-02-21 11:13:31 GMT 51.805473 -0.692825 11,675 131 274 -1152
2018-02-21 11:13:28 GMT 51.806683 -0.695038 11,725 131 274 -1152
2018-02-21 11:13:25 GMT 51.810219 -0.701447 11,800 131 275 -1152
2018-02-21 11:13:22 GMT 51.812222 -0.705185 11,875 131 275 -1152
2018-02-21 11:13:19 GMT 51.814735 -0.709839 11,900 131 275 -1152
2018-02-21 11:13:16 GMT 51.817154 -0.714334 12,075 130 277 -1024
2018-02-21 11:13:12 GMT 51.821320 -0.722128 12,050 131 277 -1088
2018-02-21 11:13:09 GMT 51.823196 -0.725543 12,125 131 278 -960
2018-02-21 11:13:06 GMT 51.825813 -0.730362 12,125 131 278 -960
2018-02-21 11:13:03 GMT 51.827911 -0.734302 12,200 131 279 -960
2018-02-21 11:13:00 GMT 51.830376 -0.738831 12,250 131 281 -960
2018-02-21 11:12:57 GMT 51.833038 -0.743730 12,375 131 283 -960
2018-02-21 11:12:54 GMT 51.835785 -0.748778 12,375 131 284 -960
2018-02-21 11:12:51 GMT 51.838211 -0.753232 12,400 131 285 -960
2018-02-21 11:12:48 GMT 51.841782 -0.759735 12,450 131 286 -896
2018-02-21 11:12:45 GMT 51.843796 -0.763401 12,450 131 286 -896
2018-02-21 11:12:42 GMT 51.845970 -0.767441 12,675 131 289 -896
2018-02-21 11:12:39 GMT 51.849564 -0.774017 12,550 131 288 -896
2018-02-21 11:12:36 GMT 51.851791 -0.778046 12,600 131 289 -896
2018-02-21 11:12:33 GMT 51.854118 -0.782242 12,650 131 290 -832
2018-02-21 11:12:30 GMT 51.857658 -0.788727 12,700 131 293 -640
2018-02-21 11:12:27 GMT 51.859425 -0.792007 12,825 131 297 -576
2018-02-21 11:12:24 GMT 51.862381 -0.797400 12,750 131 296 -576
2018-02-21 11:12:20 GMT 51.865524 -0.803146 12,800 131 296 -576
2018-02-21 11:12:17 GMT 51.868782 -0.809097 12,800 131 296 -576
2018-02-21 11:12:13 GMT 51.872227 -0.815430 12,850 131 299 -576
2018-02-21 11:12:10 GMT 51.874229 -0.819092 12,875 131 305 -512
2018-02-21 11:12:07 GMT 51.877537 -0.825195 12,900 131 302 -512
2018-02-21 11:12:04 GMT 51.880142 -0.829926 12,950 131 305 -512
2018-02-21 11:12:01 GMT 51.883026 -0.835184 12,975 131 305 -512
2018-02-21 11:11:58 GMT 51.886658 -0.841904 13,000 131 308 -512
2018-02-21 11:11:55 GMT 51.889126 -0.846329 13,000 131 309 -512
2018-02-21 11:11:52 GMT 51.891861 -0.851366 13,025 131 313 -512
2018-02-21 11:11:49 GMT 51.894333 -0.855942 13,050 131 313 -512
2018-02-21 11:11:46 GMT 51.896851 -0.860443 13,075 131 315 -512
2018-02-21 11:11:43 GMT 51.900021 -0.866272 13,100 131 318 -640
2018-02-21 11:11:40 GMT 51.903511 -0.872707 13,125 131 319 -832
2018-02-21 11:11:37 GMT 51.906071 -0.877337 13,150 131 320 -960
2018-02-21 11:11:34 GMT 51.910309 -0.885010 13,250 131 322 -1280
2018-02-21 11:11:31 GMT 51.911564 -0.887381 13,275 131 322 -1408
2018-02-21 11:11:28 GMT 51.915619 -0.894699 13,375 131 322 -1472
2018-02-21 11:11:25 GMT 51.918129 -0.899231 13,425 131 322 -1408
2018-02-21 11:11:22 GMT 51.921062 -0.904646 13,525 130 323 -1280
2018-02-21 11:11:19 GMT 51.924599 -0.911159 13,550 130 323 -1280
2018-02-21 11:11:16 GMT 51.926556 -0.914769 13,650 126 327 -1344
2018-02-21 11:11:13 GMT 51.930233 -0.921753 13,750 130 322 -1344
2018-02-21 11:11:10 GMT 51.932053 -0.925293 13,850 129 323 -1280
2018-02-21 11:11:07 GMT 51.936081 -0.933075 13,800 129 323 -1280
2018-02-21 11:11:04 GMT 51.938553 -0.937881 13,875 129 324 -1344
2018-02-21 11:11:01 GMT 51.942055 -0.944824 13,925 128 324 -1280
2018-02-21 11:10:58 GMT 51.944897 -0.950474 14,075 128 325 -1344
2018-02-21 11:10:55 GMT 51.946701 -0.954132 14,050 128 326 -1344
2018-02-21 11:10:52 GMT 51.950409 -0.961761 14,150 127 326 -1344
2018-02-21 11:10:49 GMT 51.953091 -0.967346 14,250 127 327 -1344
2018-02-21 11:10:46 GMT 51.955170 -0.971832 14,275 126 327 -1344
2018-02-21 11:10:43 GMT 51.958767 -0.979431 14,375 126 327 -1344
2018-02-21 11:10:40 GMT 51.961029 -0.984344 14,400 126 327 -1344
2018-02-21 11:10:37 GMT 51.964027 -0.990810 14,475 126 327 -1344
2018-02-21 11:10:34 GMT 51.965790 -0.994568 14,725 127 330 -1344
2018-02-21 11:10:31 GMT 51.969406 -1.002350 14,575 127 328 -1280
2018-02-21 11:10:28 GMT 51.972702 -1.009445 14,775 127 329 -1344
2018-02-21 11:10:25 GMT 51.974213 -1.012573 14,700 127 330 -1344
2018-02-21 11:10:22 GMT 51.977062 -1.018668 14,875 128 334 -1344
2018-02-21 11:10:19 GMT 51.979671 -1.024161 14,825 127 331 -1344
2018-02-21 11:10:16 GMT 51.983505 -1.032181 14,950 128 334 -1344
2018-02-21 11:10:13 GMT 51.985722 -1.036717 14,950 128 334 -1344
2018-02-21 11:10:10 GMT 51.988564 -1.042603 15,050 128 334 -1344
2018-02-21 11:10:07 GMT 51.991333 -1.048355 15,150 128 335 -1344
2018-02-21 11:10:04 GMT 51.994102 -1.054060 15,175 128 336 -1344
2018-02-21 11:10:01 GMT 51.997101 -1.060181 15,300 128 336 -1344
2018-02-21 11:09:58 GMT 52.000061 -1.066302 15,325 128 337 -1344
2018-02-21 11:09:55 GMT 52.003551 -1.073364 15,350 128 337 -1344
2018-02-21 11:09:52 GMT 52.005924 -1.078151 15,425 128 338 -1408
2018-02-21 11:09:49 GMT 52.009602 -1.085606 15,475 128 340 -1408
2018-02-21 11:09:46 GMT 52.013744 -1.093924 15,550 128 339 -1344
2018-02-21 11:09:43 GMT 52.014862 -1.096115 15,675 128 340 -1344
2018-02-21 11:09:40 GMT 52.018387 -1.103287 15,700 129 341 -1344
2018-02-21 11:09:37 GMT 52.020584 -1.107635 15,850 128 342 -1344
2018-02-21 11:09:33 GMT 52.025246 -1.116996 15,975 129 342 -1344
2018-02-21 11:09:30 GMT 52.028366 -1.123199 15,950 128 343 -1408
2018-02-21 11:09:27 GMT 52.030746 -1.128006 15,950 129 344 -1408
2018-02-21 11:09:24 GMT 52.034363 -1.135178 16,075 128 344 -1408
2018-02-21 11:09:21 GMT 52.037384 -1.141205 16,300 128 344 -1408
2018-02-21 11:09:18 GMT 52.040279 -1.146973 16,200 128 345 -1408
2018-02-21 11:09:15 GMT 52.042702 -1.151838 16,225 128 345 -1408
2018-02-21 11:09:11 GMT 52.047310 -1.161098 16,325 128 345 -1408
2018-02-21 11:09:08 GMT 52.050201 -1.166916 16,425 128 345 -1408
2018-02-21 11:09:05 GMT 52.052292 -1.171143 16,450 128 346 -1408
2018-02-21 11:09:02 GMT 52.055603 -1.177826 16,550 128 346 -1408
2018-02-21 11:08:59 GMT 52.059631 -1.185913 16,600 128 346 -1408
2018-02-21 11:08:56 GMT 52.061508 -1.189741 16,700 128 347 -1408
2018-02-21 11:08:53 GMT 52.065514 -1.197902 16,775 128 346 -1408
2018-02-21 11:08:50 GMT 52.068420 -1.203766 16,900 128 348 -1408
2018-02-21 11:08:47 GMT 52.070435 -1.207886 17,025 128 350 -1408
2018-02-21 11:08:44 GMT 52.074417 -1.215973 16,975 128 348 -1408
2018-02-21 11:08:40 GMT 52.077942 -1.223171 17,100 128 348 -1472
2018-02-21 11:08:37 GMT 52.081528 -1.230547 17,100 128 348 -1408
2018-02-21 11:08:34 GMT 52.084808 -1.237335 17,200 128 350 -1408
2018-02-21 11:08:31 GMT 52.087112 -1.242083 17,225 128 350 -1408
2018-02-21 11:08:28 GMT 52.089722 -1.247419 17,325 128 350 -1408
2018-02-21 11:08:25 GMT 52.092327 -1.252755 17,425 128 350 -1408
2018-02-21 11:08:22 GMT 52.095726 -1.259818 17,500 128 351 -1408
2018-02-21 11:08:18 GMT 52.100380 -1.269235 17,575 128 350 -1344
2018-02-21 11:08:14 GMT 52.104904 -1.278534 17,625 128 351 -1408
2018-02-21 11:08:11 GMT 52.107876 -1.284537 17,675 128 351 -1408
2018-02-21 11:08:08 GMT 52.109692 -1.288225 17,800 128 353 -1408
2018-02-21 11:08:05 GMT 52.113136 -1.295288 17,800 128 352 -1408
2018-02-21 11:08:01 GMT 52.117722 -1.304550 17,900 128 352 -1408
2018-02-21 11:07:57 GMT 52.121513 -1.312160 18,000 128 352 -1408
2018-02-21 11:07:54 GMT 52.124908 -1.319046 18,075 128 353 -1408
2018-02-21 11:07:51 GMT 52.127335 -1.324005 18,175 129 354 -1472
2018-02-21 11:07:48 GMT 52.129520 -1.328326 18,400 129 355 -1408
2018-02-21 11:07:45 GMT 52.134155 -1.337585 18,275 129 355 -1408
2018-02-21 11:07:42 GMT 52.135529 -1.340254 18,300 129 355 -1472
2018-02-21 11:07:39 GMT 52.140739 -1.350612 18,425 129 355 -1408
2018-02-21 11:07:36 GMT 52.143486 -1.355948 18,475 130 355 -1408
2018-02-21 11:07:33 GMT 52.146561 -1.361847 18,550 130 356 -1408
2018-02-21 11:07:30 GMT 52.149124 -1.366730 18,675 132 357 -1472
2018-02-21 11:07:27 GMT 52.152420 -1.372757 18,675 132 357 -1472
2018-02-21 11:07:24 GMT 52.156570 -1.380040 18,800 135 359 -1408
2018-02-21 11:07:21 GMT 52.159470 -1.384888 18,825 136 359 -1472
2018-02-21 11:07:18 GMT 52.163597 -1.391497 18,975 138 361 -1408
2018-02-21 11:07:15 GMT 52.167557 -1.397382 18,975 139 362 -1472
2018-02-21 11:07:12 GMT 52.171326 -1.402719 19,050 139 362 -1472
2018-02-21 11:07:09 GMT 52.174072 -1.406642 19,150 139 361 -1408
2018-02-21 11:07:06 GMT 52.177505 -1.411438 19,525 140 363 -1472
2018-02-21 11:07:03 GMT 52.182404 -1.418413 19,250 138 362 -1472
2018-02-21 11:07:00 GMT 52.184555 -1.421432 19,325 140 362 -1472
2018-02-21 11:06:57 GMT 52.189014 -1.427673 19,400 140 362 -1472
2018-02-21 11:06:54 GMT 52.194031 -1.434402 19,525 141 363 -1472
2018-02-21 11:06:51 GMT 52.197861 -1.439366 19,525 142 362 -1472
2018-02-21 11:06:48 GMT 52.200348 -1.442566 19,625 143 363 -1472
2018-02-21 11:06:45 GMT 52.205868 -1.449254 19,675 143 363 -1472
2018-02-21 11:06:42 GMT 52.209915 -1.454119 19,750 144 363 -1472
2018-02-21 11:06:39 GMT 52.213898 -1.458664 19,800 145 363 -1472
2018-02-21 11:06:36 GMT 52.218063 -1.463394 19,900 146 364 -1472
2018-02-21 11:06:33 GMT 52.220997 -1.466596 19,975 147 364 -1472
2018-02-21 11:06:30 GMT 52.225792 -1.471619 20,050 148 365 -1472
2018-02-21 11:06:27 GMT 52.229645 -1.475601 20,075 148 364 -1472
2018-02-21 11:06:24 GMT 52.234268 -1.480179 20,200 151 366 -1408
2018-02-21 11:06:21 GMT 52.238781 -1.484410 20,225 150 366 -1408
2018-02-21 11:06:18 GMT 52.243057 -1.488342 20,350 152 367 -1472
2018-02-21 11:06:15 GMT 52.247269 -1.492004 20,350 152 367 -1472
2018-02-21 11:06:12 GMT 52.251801 -1.495819 20,425 152 368 -1472
2018-02-21 11:06:09 GMT 52.256191 -1.499555 20,575 152 369 -1472
2018-02-21 11:06:06 GMT 52.262375 -1.504822 20,600 152 370 -1472
2018-02-21 11:06:03 GMT 52.266197 -1.508030 20,650 152 370 -1472
2018-02-21 11:06:00 GMT 52.271484 -1.512451 20,775 152 371 -1536
2018-02-21 11:05:57 GMT 52.276382 -1.516571 20,825 152 371 -1472
2018-02-21 11:05:54 GMT 52.280365 -1.519852 21,025 152 374 0
2018-02-21 11:05:51 GMT 52.282791 -1.521912 20,950 152 373 -1536
2018-02-21 11:05:48 GMT 52.289383 -1.527492 21,100 152 373 -1536
2018-02-21 11:05:45 GMT 52.294598 -1.531887 21,250 152 373 -1536
2018-02-21 11:05:42 GMT 52.301022 -1.537301 21,475 152 377 -1536
2018-02-21 11:05:38 GMT 52.304901 -1.540527 21,300 152 375 -1536
2018-02-21 11:05:35 GMT 52.308563 -1.543655 21,325 152 376 -1536
2018-02-21 11:05:32 GMT 52.312145 -1.546640 21,500 152 379 -1600
2018-02-21 11:05:29 GMT 52.319221 -1.552604 21,500 152 379 -1600
2018-02-21 11:05:26 GMT 52.323875 -1.556527 21,600 152 377 -1600
2018-02-21 11:05:22 GMT 52.328255 -1.560137 21,775 152 379 -1536
2018-02-21 11:05:19 GMT 52.334164 -1.565159 21,750 152 379 -1600
2018-02-21 11:05:16 GMT 52.338364 -1.568680 21,925 152 380 -1600
2018-02-21 11:05:13 GMT 52.343475 -1.573007 21,950 152 381 -1600
2018-02-21 11:05:09 GMT 52.353012 -1.581039 22,050 152 381 -1600
2018-02-21 11:05:06 GMT 52.354614 -1.582413 22,100 152 381 -1600
2018-02-21 11:05:03 GMT 52.359924 -1.586914 22,175 152 381 -1600
2018-02-21 11:05:00 GMT 52.364796 -1.590977 22,275 152 383 -1600
2018-02-21 11:04:57 GMT 52.368393 -1.594086 22,325 152 383 -1664
2018-02-21 11:04:54 GMT 52.372147 -1.597290 22,625 152 385 -1600
2018-02-21 11:04:51 GMT 52.378574 -1.602827 22,475 152 385 -1600
2018-02-21 11:04:48 GMT 52.381416 -1.605259 22,575 152 386 -1600
2018-02-21 11:04:45 GMT 52.387749 -1.610674 22,625 152 387 -1664
2018-02-21 11:04:41 GMT 52.393753 -1.615853 22,725 152 389 -1728
2018-02-21 11:04:37 GMT 52.400131 -1.621347 22,825 152 391 -1792
2018-02-21 11:04:34 GMT 52.405426 -1.625900 23,025 152 395 -1792
2018-02-21 11:04:31 GMT 52.408508 -1.628488 23,175 152 396 -1792
2018-02-21 11:04:28 GMT 52.414810 -1.633835 23,125 152 396 -1792
2018-02-21 11:04:25 GMT 52.419170 -1.637591 23,175 152 396 -1792
2018-02-21 11:04:22 GMT 52.424561 -1.642151 23,300 152 399 -1920
2018-02-21 11:04:19 GMT 52.428665 -1.645595 23,450 152 400 -1920
2018-02-21 11:04:16 GMT 52.433273 -1.649519 23,550 152 404 -1920
2018-02-21 11:04:13 GMT 52.439560 -1.654776 23,575 152 403 -1920
2018-02-21 11:04:10 GMT 52.444336 -1.658859 23,725 152 405 -1920
2018-02-21 11:04:07 GMT 52.448318 -1.662292 23,750 152 406 -1920
2018-02-21 11:04:04 GMT 52.455002 -1.667938 23,900 152 409 -1920
2018-02-21 11:04:01 GMT 52.459206 -1.671491 23,950 152 408 -1920
2018-02-21 11:03:58 GMT 52.463535 -1.675180 24,100 152 410 -1920
2018-02-21 11:03:55 GMT 52.469585 -1.680280 24,150 152 411 -1920
2018-02-21 11:03:52 GMT 52.474987 -1.684832 24,325 152 411 -1920
2018-02-21 11:03:49 GMT 52.480385 -1.689462 24,375 152 411 -1984
2018-02-21 11:03:45 GMT 52.485134 -1.693464 24,475 152 411 -1984
2018-02-21 11:03:42 GMT 52.490860 -1.698329 24,600 152 412 -1984
2018-02-21 11:03:39 GMT 52.495102 -1.701889 24,675 152 413 -1984
2018-02-21 11:03:36 GMT 52.500359 -1.706334 24,825 152 413 -1984
2018-02-21 11:03:33 GMT 52.507278 -1.712265 24,900 152 413 -1984
2018-02-21 11:03:30 GMT 52.510025 -1.714630 25,000 152 414 -1984
2018-02-21 11:03:27 GMT 52.516800 -1.720428 25,075 152 414 -1984
2018-02-21 11:03:24 GMT 52.522202 -1.725082 25,200 152 415 -1984
2018-02-21 11:03:21 GMT 52.527122 -1.729248 25,275 152 415 -1984
2018-02-21 11:03:18 GMT 52.533596 -1.734820 25,425 152 415 -1984
2018-02-21 11:03:15 GMT 52.537170 -1.737823 25,475 152 415 -1984
2018-02-21 11:03:12 GMT 52.542984 -1.742783 25,850 152 416 -1920
2018-02-21 11:03:09 GMT 52.547058 -1.746292 25,650 152 416 -1920
2018-02-21 11:03:06 GMT 52.552681 -1.751142 25,800 152 417 -1920
2018-02-21 11:03:03 GMT 52.557999 -1.755676 25,950 152 417 -1984
2018-02-21 11:03:00 GMT 52.563297 -1.760245 26,000 152 417 -1984
2018-02-21 11:02:57 GMT 52.566692 -1.763149 26,050 152 417 -1984
2018-02-21 11:02:54 GMT 52.571487 -1.767229 26,175 152 418 -1984
2018-02-21 11:02:51 GMT 52.578007 -1.772879 26,250 152 418 -1984
2018-02-21 11:02:48 GMT 52.583267 -1.777496 26,375 152 418 -1984
2018-02-21 11:02:45 GMT 52.588249 -1.781747 26,600 152 418 -1984
2018-02-21 11:02:42 GMT 52.592148 -1.785202 26,650 152 417 -1984
2018-02-21 11:02:39 GMT 52.599335 -1.791382 26,650 152 418 -1984
2018-02-21 11:02:36 GMT 52.602768 -1.794357 26,800 152 417 -1984
2018-02-21 11:02:33 GMT 52.606682 -1.797756 26,825 152 417 -1984
2018-02-21 11:02:30 GMT 52.613201 -1.803327 27,000 152 417 -1984
2018-02-21 11:02:27 GMT 52.618835 -1.808090 27,025 152 417 -1984
2018-02-21 11:02:24 GMT 52.622955 -1.811600 27,150 152 416 -1984
2018-02-21 11:02:21 GMT 52.630142 -1.817703 27,250 152 416 -1984
2018-02-21 11:02:18 GMT 52.634426 -1.821298 27,500 153 416 -1984
2018-02-21 11:02:15 GMT 52.637695 -1.823959 27,425 153 416 -1984
2018-02-21 11:02:12 GMT 52.644882 -1.830063 27,575 152 416 -1984
2018-02-21 11:02:09 GMT 52.650009 -1.834335 27,625 152 415 -1984
2018-02-21 11:02:06 GMT 52.655285 -1.838876 27,850 151 415 -2048
2018-02-21 11:02:03 GMT 52.659164 -1.842346 28,100 145 432 -2112
2018-02-21 11:02:00 GMT 52.664246 -1.846848 27,950 150 415 -1984
2018-02-21 11:01:57 GMT 52.669922 -1.852036 28,025 150 414 -1984
2018-02-21 11:01:54 GMT 52.674271 -1.856079 28,275 149 413 -2048
2018-02-21 11:01:51 GMT 52.680374 -1.861869 28,225 149 414 -2048
2018-02-21 11:01:48 GMT 52.684479 -1.865921 28,375 148 413 -2048
2018-02-21 11:01:45 GMT 52.688892 -1.870265 28,700 145 413 -1984
2018-02-21 11:01:42 GMT 52.693954 -1.875305 28,550 148 411 -2048
2018-02-21 11:01:39 GMT 52.698166 -1.879578 28,625 147 411 -2048
2018-02-21 11:01:36 GMT 52.703465 -1.885097 28,775 147 409 -2048
2018-02-21 11:01:33 GMT 52.709976 -1.892014 28,900 146 410 -1920
2018-02-21 11:01:30 GMT 52.713776 -1.896133 29,050 145 411 -1920
2018-02-21 11:01:27 GMT 52.719131 -1.902008 29,025 145 410 -1920
2018-02-21 11:01:24 GMT 52.722244 -1.905594 29,150 145 411 -1984
2018-02-21 11:01:21 GMT 52.727554 -1.911621 29,275 145 412 -1984
2018-02-21 11:01:18 GMT 52.733303 -1.918291 29,325 145 413 -1984
2018-02-21 11:01:14 GMT 52.738609 -1.924334 29,475 145 414 -1984
2018-02-21 11:01:11 GMT 52.743965 -1.930455 29,575 145 415 -1984
2018-02-21 11:01:08 GMT 52.748386 -1.935556 29,675 145 415 -1984
2018-02-21 11:01:05 GMT 52.754066 -1.941990 29,750 145 416 -1984
2018-02-21 11:01:02 GMT 52.757080 -1.945419 29,900 145 418 -1984
2018-02-21 11:00:59 GMT 52.763561 -1.952898 29,950 145 421 -2048
2018-02-21 11:00:56 GMT 52.767380 -1.957214 30,075 145 419 -2048
2018-02-21 11:00:53 GMT 52.771198 -1.961530 30,175 145 421 -2048
2018-02-21 11:00:50 GMT 52.776489 -1.967545 30,275 145 422 -2048
2018-02-21 11:00:47 GMT 52.781158 -1.972831 30,325 145 422 -2048
2018-02-21 11:00:44 GMT 52.786469 -1.978836 30,500 145 425 -2048
2018-02-21 11:00:41 GMT 52.791168 -1.984131 30,550 145 425 -2048
2018-02-21 11:00:38 GMT 52.797314 -1.991115 30,700 145 428 -2112
2018-02-21 11:00:35 GMT 52.804001 -1.998672 30,825 145 429 -2112
2018-02-21 11:00:32 GMT 52.806484 -2.001474 31,225 145 436 -2112
2018-02-21 11:00:28 GMT 52.811874 -2.007599 31,100 145 436 -2112
2018-02-21 11:00:25 GMT 52.818634 -2.015285 31,125 145 434 -2112
2018-02-21 11:00:22 GMT 52.822403 -2.019653 31,300 145 436 -2048
2018-02-21 11:00:19 GMT 52.826385 -2.024231 31,500 145 438 -2048
2018-02-21 11:00:16 GMT 52.831375 -2.029953 31,475 144 440 -2112
2018-02-21 11:00:13 GMT 52.838013 -2.037659 31,550 144 441 -2112
2018-02-21 11:00:10 GMT 52.842682 -2.043152 31,900 144 445 -2112
2018-02-21 11:00:07 GMT 52.846191 -2.047224 31,800 144 445 -2112
2018-02-21 11:00:04 GMT 52.852707 -2.054901 31,900 144 446 -2112
2018-02-21 11:00:01 GMT 52.857925 -2.061035 31,950 144 448 -2112
2018-02-21 10:59:58 GMT 52.861275 -2.064959 32,150 144 449 -2112
2018-02-21 10:59:55 GMT 52.866676 -2.071315 32,200 144 449 -2112
2018-02-21 10:59:52 GMT 52.873306 -2.079086 32,325 144 452 -2112
2018-02-21 10:59:49 GMT 52.878433 -2.084961 32,375 144 452 -2112
2018-02-21 10:59:46 GMT 52.883389 -2.090777 32,525 145 453 -2112
2018-02-21 10:59:43 GMT 52.888184 -2.096270 32,625 145 454 -2112
2018-02-21 10:59:40 GMT 52.891628 -2.100272 32,725 145 454 -2112
2018-02-21 10:59:37 GMT 52.899033 -2.108765 32,800 145 455 -2048
2018-02-21 10:59:34 GMT 52.904251 -2.114716 32,950 145 456 -2048
2018-02-21 10:59:31 GMT 52.909271 -2.120440 33,025 145 456 -2048
2018-02-21 10:59:28 GMT 52.913090 -2.124756 33,275 145 458 -2048
2018-02-21 10:59:25 GMT 52.919540 -2.132111 33,225 145 458 -2048
2018-02-21 10:59:22 GMT 52.923386 -2.136459 33,425 145 457 -2112
2018-02-21 10:59:19 GMT 52.929657 -2.143555 33,425 145 457 -2112
2018-02-21 10:59:16 GMT 52.934921 -2.149429 33,575 145 457 -2112
2018-02-21 10:59:13 GMT 52.939133 -2.154160 33,625 146 458 -2112
2018-02-21 10:59:10 GMT 52.945404 -2.161179 33,800 146 457 -2048
2018-02-21 10:59:07 GMT 52.950668 -2.167053 33,850 146 457 -2112
2018-02-21 10:59:04 GMT 52.955406 -2.172311 34,025 146 457 -2048
2018-02-21 10:59:01 GMT 52.963135 -2.180786 34,100 146 456 -2048
2018-02-21 10:58:58 GMT 52.966461 -2.184448 34,200 146 456 -1984
2018-02-21 10:58:55 GMT 52.970673 -2.189102 34,500 146 457 -1664
2018-02-21 10:58:52 GMT 52.977676 -2.196884 34,425 146 455 -1984
2018-02-21 10:58:49 GMT 52.983475 -2.203230 34,500 146 455 -1920
2018-02-21 10:58:46 GMT 52.986099 -2.206116 34,625 146 455 -1856
2018-02-21 10:58:43 GMT 52.993469 -2.214203 34,675 146 462 -1344
2018-02-21 10:58:40 GMT 52.997681 -2.218857 34,800 146 455 -1792
2018-02-21 10:58:37 GMT 53.002945 -2.224579 34,850 146 455 -1792
2018-02-21 10:58:34 GMT 53.007523 -2.229614 35,000 146 457 -1664
2018-02-21 10:58:31 GMT 53.014893 -2.237778 35,125 146 460 -1472
2018-02-21 10:58:28 GMT 53.018948 -2.242231 35,200 146 458 -1600
2018-02-21 10:58:25 GMT 53.023727 -2.247467 35,175 146 458 -1536
2018-02-21 10:58:22 GMT 53.028671 -2.252884 35,300 146 460 -1408
2018-02-21 10:58:19 GMT 53.034870 -2.259731 35,425 146 462 -1408
2018-02-21 10:58:16 GMT 53.041397 -2.266998 35,425 146 462 -1344
2018-02-21 10:58:13 GMT 53.044785 -2.270717 35,475 146 463 -1408
2018-02-21 10:58:10 GMT 53.050091 -2.276603 37,500 161 484 -2176
2018-02-21 10:58:07 GMT 53.055588 -2.282791 35,675 146 464 -1600
2018-02-21 10:58:04 GMT 53.061676 -2.289505 35,800 147 469 -1664
2018-02-21 10:58:01 GMT 53.065781 -2.294102 35,800 146 466 -1728
2018-02-21 10:57:58 GMT 53.073120 -2.302246 35,925 146 467 -1664
2018-02-21 10:57:55 GMT 53.077423 -2.306976 36,100 146 467 -1664
2018-02-21 10:57:52 GMT 53.084076 -2.314270 36,100 147 469 -1664
2018-02-21 10:57:49 GMT 53.088638 -2.319107 36,550 147 470 -1664
2018-02-21 10:57:46 GMT 53.094643 -2.325492 36,375 150 472 -1728
2018-02-21 10:57:43 GMT 53.098892 -2.329886 36,325 149 472 -1728
2018-02-21 10:57:40 GMT 53.106766 -2.337655 36,500 150 472 -1728
2018-02-21 10:57:37 GMT 53.112705 -2.343077 36,500 151 473 -1728
2018-02-21 10:57:34 GMT 53.116379 -2.346287 36,625 154 476 -1664
2018-02-21 10:57:31 GMT 53.123692 -2.352205 36,650 155 477 -1664
2018-02-21 10:57:28 GMT 53.127914 -2.355390 36,775 157 479 -1728
2018-02-21 10:57:24 GMT 53.140404 -2.363838 36,875 159 480 -1664
2018-02-21 10:57:21 GMT 53.144348 -2.366220 36,950 160 481 -1664
2018-02-21 10:57:18 GMT 53.149841 -2.369437 37,025 161 482 -1792
2018-02-21 10:57:15 GMT 53.156570 -2.373282 37,225 161 483 -1984
2018-02-21 10:57:12 GMT 53.163120 -2.376924 37,225 161 483 -1984
2018-02-21 10:57:09 GMT 53.169250 -2.380266 37,350 161 483 -2048
2018-02-21 10:57:06 GMT 53.173920 -2.382856 37,500 161 484 -2112
2018-02-21 10:57:03 GMT 53.179001 -2.385681 37,725 161 485 -1536
2018-02-21 10:57:00 GMT 53.186646 -2.389919 37,675 161 485 -1664
2018-02-21 10:56:57 GMT 53.194077 -2.393969 37,725 161 484 -1792
2018-02-21 10:56:54 GMT 53.201523 -2.398080 37,900 161 485 -1344
2018-02-21 10:56:51 GMT 53.208344 -2.401768 37,875 161 486 -896
2018-02-21 10:56:48 GMT 53.214096 -2.404956 37,925 161 489 -576
2018-02-21 10:56:45 GMT 53.220337 -2.408360 37,925 161 491 -640
2018-02-21 10:56:42 GMT 53.224850 -2.410772 37,975 161 493 -768
2018-02-21 10:56:39 GMT 53.232880 -2.415187 38,025 162 495 -1216
2018-02-21 10:56:35 GMT 53.238922 -2.418405 38,425 161 497 -1984
2018-02-21 10:56:32 GMT 53.245468 -2.422015 38,325 161 497 -2432
2018-02-21 10:56:29 GMT 53.252884 -2.426017 38,325 161 497 -2432
2018-02-21 10:56:26 GMT 53.260925 -2.430483 38,450 161 497 -2432
2018-02-21 10:56:23 GMT 53.267490 -2.434037 38,650 161 497 -2240
2018-02-21 10:56:20 GMT 53.273125 -2.437188 38,650 161 497 -2304
2018-02-21 10:56:17 GMT 53.279640 -2.440742 38,800 161 497 -1856
2018-02-21 10:56:14 GMT 53.287262 -2.444929 38,850 161 498 -1344
2018-02-21 10:56:10 GMT 53.296005 -2.449716 38,925 161 498 -960
2018-02-21 10:56:07 GMT 53.303421 -2.453875 38,975 161 499 -576
2018-02-21 10:56:04 GMT 53.308037 -2.456333 38,975 161 499 -384
2018-02-21 10:56:01 GMT 53.316792 -2.461180 38,975 161 500 -128
2018-02-21 10:55:58 GMT 53.321167 -2.463603 38,975 161 499 -64
2018-02-21 10:55:55 GMT 53.327957 -2.467372 38,975 161 500 -64
2018-02-21 10:55:52 GMT 53.334961 -2.471218 38,975 161 500 -64
2018-02-21 10:55:49 GMT 53.342209 -2.475155 39,000 161 500 -64
2018-02-21 10:55:46 GMT 53.347687 -2.478202 39,000 161 500 -128
2018-02-21 10:55:43 GMT 53.355560 -2.482596 39,000 161 500 -128
2018-02-21 10:55:40 GMT 53.359955 -2.484950 39,000 161 500 -64
2018-02-21 10:55:37 GMT 53.365856 -2.488242 39,000 161 500 -64
2018-02-21 10:55:34 GMT 53.373505 -2.492484 39,000 161 500 -64
2018-02-21 10:55:31 GMT 53.382057 -2.497209 39,000 161 500 -64
2018-02-21 10:55:28 GMT 53.387737 -2.500359 38,975 161 500 -64
2018-02-21 10:55:25 GMT 53.396069 -2.504964 38,975 161 500 0
2018-02-21 10:55:22 GMT 53.400024 -2.507145 38,975 161 500 -64
2018-02-21 10:55:19 GMT 53.407475 -2.511265 38,975 161 499 -64
2018-02-21 10:55:16 GMT 53.414040 -2.514900 38,975 161 499 0
2018-02-21 10:55:13 GMT 53.418640 -2.517439 39,000 161 499 -64
2018-02-21 10:55:10 GMT 53.426281 -2.521605 39,000 161 499 -64
2018-02-21 10:55:07 GMT 53.430862 -2.524187 38,975 161 499 -64
2018-02-21 10:55:04 GMT 53.439651 -2.529053 38,975 161 499 -64
2018-02-21 10:55:01 GMT 53.445553 -2.532268 38,975 161 499 -64
2018-02-21 10:54:58 GMT 53.453423 -2.536630 38,975 161 499 -64
2018-02-21 10:54:55 GMT 53.458878 -2.539725 38,975 161 498 -64
2018-02-21 10:54:52 GMT 53.465881 -2.543570 39,000 161 498 -64
2018-02-21 10:54:49 GMT 53.472839 -2.547494 39,000 161 498 -64
2018-02-21 10:54:46 GMT 53.478104 -2.550398 39,000 161 498 -64
2018-02-21 10:54:43 GMT 53.485931 -2.554714 39,000 161 497 -64
2018-02-21 10:54:40 GMT 53.490990 -2.557553 39,000 161 498 -64
2018-02-21 10:54:37 GMT 53.497971 -2.561430 39,000 161 498 0
2018-02-21 10:54:34 GMT 53.503830 -2.564680 39,000 161 498 -64
2018-02-21 10:54:31 GMT 53.510376 -2.568290 38,975 161 497 0
2018-02-21 10:54:28 GMT 53.519119 -2.573155 38,975 161 497 0
2018-02-21 10:54:25 GMT 53.525856 -2.576940 38,975 161 497 0
2018-02-21 10:54:22 GMT 53.530651 -2.579606 38,975 161 497 0
2018-02-21 10:54:19 GMT 53.538300 -2.583827 39,000 161 497 -64
2018-02-21 10:54:16 GMT 53.546539 -2.588457 39,000 161 497 -64
2018-02-21 10:54:13 GMT 53.550934 -2.590890 39,000 161 497 0
2018-02-21 10:54:10 GMT 53.557232 -2.594389 38,975 161 497 0
2018-02-21 10:54:07 GMT 53.563110 -2.597717 38,975 161 497 -64
2018-02-21 10:54:04 GMT 53.570938 -2.602033 39,000 161 497 -64
2018-02-21 10:54:01 GMT 53.578354 -2.606192 39,000 161 497 0
2018-02-21 10:53:58 GMT 53.582462 -2.608526 38,975 161 497 -64
2018-02-21 10:53:55 GMT 53.589249 -2.612235 38,975 161 496 0
2018-02-21 10:53:52 GMT 53.598152 -2.617250 38,975 161 496 0
2018-02-21 10:53:49 GMT 53.603577 -2.620318 39,000 161 496 -64
2018-02-21 10:53:46 GMT 53.608578 -2.623147 39,000 161 496 -64
2018-02-21 10:53:43 GMT 53.617950 -2.628322 38,975 161 496 0
2018-02-21 10:53:40 GMT 53.622299 -2.630755 38,975 161 496 0
2018-02-21 10:53:37 GMT 53.628799 -2.634443 39,000 161 496 0
2018-02-21 10:53:34 GMT 53.635113 -2.637930 38,975 161 496 -64
2018-02-21 10:53:31 GMT 53.642052 -2.641889 38,975 161 496 -64
2018-02-21 10:53:28 GMT 53.649673 -2.646136 38,975 161 496 -64
2018-02-21 10:53:24 GMT 53.658371 -2.651001 38,975 161 496 -64
2018-02-21 10:53:21 GMT 53.663792 -2.654006 39,000 161 496 0
2018-02-21 10:53:18 GMT 53.670307 -2.657722 39,000 161 495 -64
2018-02-21 10:53:15 GMT 53.677460 -2.661673 39,000 161 495 0
2018-02-21 10:53:12 GMT 53.682877 -2.664750 39,000 161 495 -64
2018-02-21 10:53:09 GMT 53.689178 -2.668265 39,000 161 495 0
2018-02-21 10:53:06 GMT 53.695911 -2.672020 39,000 161 495 -64
2018-02-21 10:53:03 GMT 53.701355 -2.675092 38,975 161 495 -64
2018-02-21 10:53:00 GMT 53.709183 -2.679487 38,975 161 495 0
2018-02-21 10:52:57 GMT 53.718491 -2.684703 39,000 161 495 0
2018-02-21 10:52:54 GMT 53.723053 -2.687256 39,000 161 495 0
2018-02-21 10:52:51 GMT 53.729336 -2.690762 39,000 161 495 0
2018-02-21 10:52:47 GMT 53.737156 -2.695205 39,000 161 495 -64
2018-02-21 10:52:44 GMT 53.745815 -2.700052 39,000 161 495 -64
2018-02-21 10:52:41 GMT 53.752335 -2.703687 39,000 161 495 -64
2018-02-21 10:52:38 GMT 53.755554 -2.705540 39,000 161 495 -64
2018-02-21 10:52:35 GMT 53.763180 -2.709826 39,000 161 495 -64
2018-02-21 10:52:32 GMT 53.770294 -2.713858 39,000 161 495 -64
2018-02-21 10:52:29 GMT 53.775925 -2.716997 39,000 161 494 -64
2018-02-21 10:52:26 GMT 53.783295 -2.721157 39,000 161 494 -64
2018-02-21 10:52:23 GMT 53.791122 -2.725630 39,000 161 494 -64
2018-02-21 10:52:20 GMT 53.797165 -2.729004 39,000 161 494 -64
2018-02-21 10:52:17 GMT 53.802383 -2.731986 39,000 161 494 0
2018-02-21 10:52:14 GMT 53.810165 -2.736380 39,000 161 494 -64
2018-02-21 10:52:11 GMT 53.814247 -2.738665 39,000 161 494 0
2018-02-21 10:52:08 GMT 53.822708 -2.743443 39,000 161 494 -64
2018-02-21 10:52:05 GMT 53.831146 -2.748198 38,975 161 494 -64
2018-02-21 10:52:02 GMT 53.834381 -2.750035 38,975 161 494 0
2018-02-21 10:51:59 GMT 53.842831 -2.754822 38,975 161 494 -64
2018-02-21 10:51:56 GMT 53.847794 -2.757647 39,000 161 494 0
2018-02-21 10:51:53 GMT 53.854294 -2.761335 38,975 161 494 0
2018-02-21 10:51:50 GMT 53.862076 -2.765730 39,000 161 493 0
2018-02-21 10:51:47 GMT 53.867504 -2.768797 39,000 161 494 -64
2018-02-21 10:51:44 GMT 53.873749 -2.772321 39,000 161 494 -64
2018-02-21 10:51:41 GMT 53.879379 -2.775539 39,000 161 493 0
2018-02-21 10:51:38 GMT 53.887161 -2.779933 39,000 161 493 0
2018-02-21 10:51:35 GMT 53.893013 -2.783257 39,000 161 493 -64
2018-02-21 10:51:32 GMT 53.899483 -2.786892 38,975 161 493 0
2018-02-21 10:51:29 GMT 53.907261 -2.791335 38,975 161 493 0
2018-02-21 10:51:26 GMT 53.913311 -2.794728 39,000 161 493 0
2018-02-21 10:51:23 GMT 53.920200 -2.798686 38,975 161 493 0
2018-02-21 10:51:20 GMT 53.925835 -2.801837 38,975 161 493 -64
2018-02-21 10:51:17 GMT 53.933189 -2.806037 38,975 161 493 -64
2018-02-21 10:51:14 GMT 53.939438 -2.809596 39,000 161 493 -64
2018-02-21 10:51:11 GMT 53.946762 -2.813756 39,000 161 493 -64
2018-02-21 10:51:08 GMT 53.954086 -2.817915 39,000 161 493 -64
2018-02-21 10:51:05 GMT 53.958435 -2.820426 39,000 161 493 -64
2018-02-21 10:51:02 GMT 53.964020 -2.823565 39,000 161 493 -64
2018-02-21 10:50:59 GMT 53.969872 -2.826879 39,000 161 493 -64
2018-02-21 10:50:56 GMT 53.978256 -2.831726 39,000 161 493 0
2018-02-21 10:50:53 GMT 53.984756 -2.835414 39,000 161 493 -64
2018-02-21 10:50:50 GMT 53.992538 -2.839809 39,000 161 493 0
2018-02-21 10:50:47 GMT 53.998779 -2.843439 38,975 161 493 0
2018-02-21 10:50:44 GMT 54.002224 -2.845378 39,000 161 493 0
2018-02-21 10:50:41 GMT 54.010666 -2.850167 39,000 161 493 -64
2018-02-21 10:50:38 GMT 54.015381 -2.852914 38,975 161 493 -64
2018-02-21 10:50:35 GMT 54.023163 -2.857387 39,000 161 493 0
2018-02-21 10:50:32 GMT 54.030716 -2.861696 39,000 161 493 -64
2018-02-21 10:50:29 GMT 54.038071 -2.865897 39,000 161 493 0
2018-02-21 10:50:26 GMT 54.044540 -2.869613 39,000 161 493 0
2018-02-21 10:50:23 GMT 54.048870 -2.872036 38,975 161 493 0
2018-02-21 10:50:20 GMT 54.056030 -2.876142 39,000 161 493 -64
2018-02-21 10:50:17 GMT 54.062279 -2.879710 38,975 161 494 -64
2018-02-21 10:50:14 GMT 54.067909 -2.882942 38,975 161 493 0
2018-02-21 10:50:11 GMT 54.074383 -2.886658 39,000 161 493 -64
2018-02-21 10:50:08 GMT 54.082809 -2.891523 39,000 161 493 -64
2018-02-21 10:50:05 GMT 54.090134 -2.895761 39,000 161 493 -64
2018-02-21 10:50:02 GMT 54.094677 -2.898290 39,000 161 494 -64
2018-02-21 10:49:59 GMT 54.100113 -2.901411 39,000 161 494 -64
2018-02-21 10:49:56 GMT 54.108971 -2.906530 38,975 161 494 -64
2018-02-21 10:49:53 GMT 54.114136 -2.909519 39,000 161 494 -64
2018-02-21 10:49:50 GMT 54.119568 -2.912554 39,000 161 494 -64
2018-02-21 10:49:47 GMT 54.126240 -2.916385 39,000 161 494 -64
2018-02-21 10:49:44 GMT 54.133595 -2.920667 39,000 161 494 -64
2018-02-21 10:49:41 GMT 54.141174 -2.924953 39,000 161 494 -64
2018-02-21 10:49:38 GMT 54.147217 -2.928406 39,000 161 494 -64
2018-02-21 10:49:34 GMT 54.156326 -2.933664 39,000 161 494 0
2018-02-21 10:49:30 GMT 54.164978 -2.938607 39,000 161 494 -64
2018-02-21 10:49:27 GMT 54.169281 -2.941040 39,000 159 493 0
2018-02-21 10:49:24 GMT 54.176006 -2.944901 39,000 161 494 0
2018-02-21 10:49:21 GMT 54.182476 -2.948617 39,000 160 493 0
2018-02-21 10:49:18 GMT 54.190887 -2.953439 38,975 160 494 -64
2018-02-21 10:49:14 GMT 54.199951 -2.958775 38,975 160 494 0
2018-02-21 10:49:11 GMT 54.204029 -2.961219 38,975 160 493 0
2018-02-21 10:49:08 GMT 54.209614 -2.964612 38,975 159 493 0
2018-02-21 10:49:05 GMT 54.217529 -2.969526 38,975 159 493 -64
2018-02-21 10:49:02 GMT 54.223938 -2.973607 38,975 158 493 -64
2018-02-21 10:48:59 GMT 54.230347 -2.977687 38,975 159 493 -64
2018-02-21 10:48:56 GMT 54.235683 -2.981092 39,000 158 493 -64
2018-02-21 10:48:53 GMT 54.241837 -2.985142 39,000 156 493 -64
2018-02-21 10:48:50 GMT 54.248199 -2.989380 39,000 158 492 -64
2018-02-21 10:48:47 GMT 54.255798 -2.994559 39,000 157 493 -64
2018-02-21 10:48:44 GMT 54.261940 -2.998702 39,000 157 493 -64
2018-02-21 10:48:41 GMT 54.268272 -3.003145 39,000 157 492 -64
2018-02-21 10:48:37 GMT 54.277725 -3.009862 39,000 156 493 -64
2018-02-21 10:48:34 GMT 54.282936 -3.013666 39,000 156 493 -64
2018-02-21 10:48:31 GMT 54.290680 -3.019301 39,000 156 493 -64
2018-02-21 10:48:28 GMT 54.296951 -3.023987 39,000 156 493 -64
2018-02-21 10:48:25 GMT 54.302162 -3.027815 39,000 156 493 -64
2018-02-21 10:48:22 GMT 54.308212 -3.032307 39,000 156 493 -64
2018-02-21 10:48:19 GMT 54.315521 -3.037636 39,000 156 493 -64
2018-02-21 10:48:16 GMT 54.323483 -3.043546 39,000 156 493 -64
2018-02-21 10:48:13 GMT 54.328720 -3.047414 39,000 156 493 -64
2018-02-21 10:48:10 GMT 54.332886 -3.050483 39,000 156 493 0
2018-02-21 10:48:07 GMT 54.340614 -3.056197 39,000 156 493 0
2018-02-21 10:48:03 GMT 54.349594 -3.062843 39,000 156 493 0
2018-02-21 10:48:00 GMT 54.355042 -3.066882 39,000 156 493 0
2018-02-21 10:47:57 GMT 54.363609 -3.073259 39,000 156 494 0
2018-02-21 10:47:53 GMT 54.369690 -3.077707 38,975 156 493 0
2018-02-21 10:47:50 GMT 54.374924 -3.081582 38,975 156 494 0
2018-02-21 10:47:47 GMT 54.382835 -3.087491 38,975 156 494 0
2018-02-21 10:47:44 GMT 54.388092 -3.091359 39,000 156 494 -64
2018-02-21 10:47:40 GMT 54.395824 -3.097063 39,000 156 494 -64
2018-02-21 10:47:37 GMT 54.401691 -3.101390 38,975 156 493 0
2018-02-21 10:47:34 GMT 54.409424 -3.107192 39,000 156 494 0
2018-02-21 10:47:30 GMT 54.417801 -3.113412 39,000 156 494 0
2018-02-21 10:47:27 GMT 54.423248 -3.117451 39,000 156 494 0
2018-02-21 10:47:24 GMT 54.428875 -3.121615 38,975 156 494 0
2018-02-21 10:47:21 GMT 54.434967 -3.126095 38,975 156 493 0
2018-02-21 10:47:18 GMT 54.441238 -3.130780 39,000 156 493 0
2018-02-21 10:47:15 GMT 54.448792 -3.136354 38,975 156 493 0
2018-02-21 10:47:10 GMT 54.462349 -3.146418 39,000 156 493 -64
2018-02-21 10:47:06 GMT 54.466324 -3.149441 39,000 156 493 0
2018-02-21 10:47:03 GMT 54.473240 -3.154574 39,000 156 493 -64
2018-02-21 10:47:00 GMT 54.479481 -3.159235 38,975 156 493 -64
2018-02-21 10:46:57 GMT 54.484924 -3.163230 39,000 156 492 -64
2018-02-21 10:46:54 GMT 54.493057 -3.169313 39,000 156 492 0
2018-02-21 10:46:50 GMT 54.499962 -3.174466 39,000 156 492 -64
2018-02-21 10:46:46 GMT 54.508293 -3.180625 38,975 156 492 -64
2018-02-21 10:46:42 GMT 54.516037 -3.186358 38,975 156 492 -64
2018-02-21 10:46:39 GMT 54.523331 -3.191861 39,000 156 492 -64
2018-02-21 10:46:36 GMT 54.533340 -3.199269 39,000 156 491 0
2018-02-21 10:46:33 GMT 54.536644 -3.201766 39,000 156 492 -64
2018-02-21 10:46:30 GMT 54.542091 -3.205761 39,000 156 492 -64
2018-02-21 10:46:27 GMT 54.548126 -3.210270 39,000 156 492 -64
2018-02-21 10:46:24 GMT 54.553310 -3.214167 39,000 156 491 0
2018-02-21 10:46:21 GMT 54.562481 -3.220992 39,000 156 492 0
2018-02-21 10:46:18 GMT 54.569977 -3.226651 39,000 156 491 0
2018-02-21 10:46:15 GMT 54.573326 -3.229065 39,000 156 491 0
2018-02-21 10:46:12 GMT 54.581242 -3.234974 39,000 156 491 0
2018-02-21 10:46:09 GMT 54.585384 -3.238137 39,000 156 491 0
2018-02-21 10:46:06 GMT 54.593536 -3.244198 38,975 156 492 0
2018-02-21 10:46:03 GMT 54.599350 -3.248560 39,000 156 492 0
2018-02-21 10:46:00 GMT 54.603310 -3.251537 39,000 156 492 -64
2018-02-21 10:45:57 GMT 54.610802 -3.257197 39,000 156 492 -64
2018-02-21 10:45:54 GMT 54.616837 -3.261728 39,000 156 491 0
2018-02-21 10:45:50 GMT 54.625328 -3.268183 39,000 156 491 0
2018-02-21 10:45:47 GMT 54.631805 -3.272956 39,000 156 491 -64
2018-02-21 10:45:44 GMT 54.637428 -3.277172 39,000 156 491 0
2018-02-21 10:45:40 GMT 54.646820 -3.284185 39,000 157 492 0
2018-02-21 10:45:37 GMT 54.653679 -3.289240 38,975 157 491 0
2018-02-21 10:45:34 GMT 54.658493 -3.292667 38,975 155 490 0
2018-02-21 10:45:31 GMT 54.664764 -3.297272 38,975 156 491 0
2018-02-21 10:45:28 GMT 54.671646 -3.302390 38,975 154 490 0
2018-02-21 10:45:25 GMT 54.678406 -3.307773 38,975 152 490 0
2018-02-21 10:45:21 GMT 54.684681 -3.313127 38,975 134 484 -64
2018-02-21 10:45:18 GMT 54.691681 -3.319487 38,975 150 489 -64
2018-02-21 10:45:15 GMT 54.697018 -3.324613 39,000 147 488 0
2018-02-21 10:45:12 GMT 54.702667 -3.330311 38,975 147 488 0
2018-02-21 10:45:09 GMT 54.708435 -3.336451 38,975 147 488 0
2018-02-21 10:45:06 GMT 54.716148 -3.345170 38,975 145 487 -64
2018-02-21 10:45:03 GMT 54.720062 -3.349861 38,975 137 485 -64
2018-02-21 10:44:59 GMT 54.726810 -3.358238 38,975 142 487 -64
2018-02-21 10:44:55 GMT 54.736221 -3.370864 38,975 140 486 -64
2018-02-21 10:44:52 GMT 54.738693 -3.374257 39,000 139 486 -64
2018-02-21 10:44:49 GMT 54.745148 -3.383870 38,975 138 485 -64
2018-02-21 10:44:46 GMT 54.750973 -3.393028 39,000 135 485 -64
2018-02-21 10:44:43 GMT 54.755630 -3.400753 39,000 135 484 -64
2018-02-21 10:44:39 GMT 54.763634 -3.414834 39,000 134 484 -64
2018-02-21 10:44:36 GMT 54.766426 -3.419828 38,975 134 484 0
2018-02-21 10:44:33 GMT 54.770370 -3.426684 38,975 134 484 0
2018-02-21 10:44:30 GMT 54.774719 -3.434439 38,975 134 484 -64
2018-02-21 10:44:27 GMT 54.779881 -3.443631 39,000 134 484 -64
2018-02-21 10:44:24 GMT 54.784378 -3.451646 39,000 134 484 -64
2018-02-21 10:44:21 GMT 54.789368 -3.460532 38,975 134 484 -64
2018-02-21 10:44:18 GMT 54.794216 -3.469100 39,000 134 484 -64
2018-02-21 10:44:15 GMT 54.798111 -3.476042 39,000 134 484 -64
2018-02-21 10:44:12 GMT 54.802643 -3.484081 39,000 134 484 -64
2018-02-21 10:44:09 GMT 54.807301 -3.492404 39,000 134 484 -64
2018-02-21 10:44:06 GMT 54.812931 -3.502391 39,000 134 484 -64
2018-02-21 10:44:03 GMT 54.817108 -3.509889 39,000 134 484 -64
2018-02-21 10:44:00 GMT 54.822571 -3.519537 39,000 134 484 -64
2018-02-21 10:43:57 GMT 54.827408 -3.528146 39,000 134 485 -64
2018-02-21 10:43:54 GMT 54.830841 -3.534286 39,000 134 485 -64
2018-02-21 10:43:51 GMT 54.837387 -3.545918 39,000 134 484 -64
2018-02-21 10:43:48 GMT 54.842213 -3.554577 39,000 134 484 -64
2018-02-21 10:43:44 GMT 54.845810 -3.560944 39,000 134 484 -64
2018-02-21 10:43:41 GMT 54.851715 -3.571526 39,000 134 484 -64
2018-02-21 10:43:37 GMT 54.857620 -3.582108 39,000 134 484 -64
2018-02-21 10:43:34 GMT 54.863720 -3.592945 38,975 134 484 0
2018-02-21 10:43:31 GMT 54.867119 -3.599021 39,000 134 484 0
2018-02-21 10:43:28 GMT 54.872589 -3.608766 38,975 134 484 0
2018-02-21 10:43:25 GMT 54.876297 -3.615471 38,975 134 484 0
2018-02-21 10:43:22 GMT 54.881130 -3.624157 38,975 134 484 0
2018-02-21 10:43:19 GMT 54.885788 -3.632480 38,975 133 483 0
2018-02-21 10:43:16 GMT 54.890259 -3.640594 39,000 133 483 -64
2018-02-21 10:43:12 GMT 54.896484 -3.651742 38,975 133 483 -64
2018-02-21 10:43:09 GMT 54.902222 -3.662026 38,975 133 483 -64
2018-02-21 10:43:05 GMT 54.907059 -3.670645 39,000 133 483 0
2018-02-21 10:43:02 GMT 54.911682 -3.679047 39,000 134 484 -64
2018-02-21 10:42:59 GMT 54.916183 -3.687162 39,000 133 483 -64
2018-02-21 10:42:56 GMT 54.923492 -3.700211 39,000 133 483 -64
2018-02-21 10:42:53 GMT 54.925690 -3.704170 39,000 133 483 -64
2018-02-21 10:42:50 GMT 54.932014 -3.715543 38,975 133 483 -64
2018-02-21 10:42:46 GMT 54.937775 -3.725900 39,000 133 483 -64
2018-02-21 10:42:43 GMT 54.940720 -3.731190 39,000 133 483 -64
2018-02-21 10:42:40 GMT 54.947559 -3.743508 39,000 133 483 -64
2018-02-21 10:42:37 GMT 54.950821 -3.749327 38,975 133 483 0
2018-02-21 10:42:34 GMT 54.956406 -3.759344 39,000 133 483 0
2018-02-21 10:42:31 GMT 54.959339 -3.764648 39,000 133 483 -64
2018-02-21 10:42:28 GMT 54.965378 -3.775581 38,975 133 483 -64
2018-02-21 10:42:25 GMT 54.972519 -3.788425 39,000 133 483 0
2018-02-21 10:42:22 GMT 54.975266 -3.793434 38,975 133 483 0
2018-02-21 10:42:18 GMT 54.981640 -3.804848 38,975 133 483 0
2018-02-21 10:42:15 GMT 54.986572 -3.813754 39,000 133 483 0
2018-02-21 10:42:12 GMT 54.989643 -3.819330 38,975 133 483 0
2018-02-21 10:42:09 GMT 54.993694 -3.826655 39,000 133 483 0
2018-02-21 10:42:06 GMT 54.999840 -3.837807 39,000 133 483 0
2018-02-21 10:42:03 GMT 55.003563 -3.844466 38,975 133 482 0
2018-02-21 10:42:00 GMT 55.007126 -3.850870 38,975 133 482 0
2018-02-21 10:41:57 GMT 55.013901 -3.863148 38,975 133 482 -64
2018-02-21 10:41:54 GMT 55.016968 -3.868722 39,000 133 482 -64
2018-02-21 10:41:51 GMT 55.021439 -3.876842 39,000 133 482 -64
2018-02-21 10:41:48 GMT 55.026981 -3.886913 39,000 133 482 -64
2018-02-21 10:41:45 GMT 55.031158 -3.894411 39,000 133 482 -64
2018-02-21 10:41:42 GMT 55.035782 -3.902812 39,000 133 482 -64
2018-02-21 10:41:39 GMT 55.040085 -3.910648 39,000 133 481 -64
2018-02-21 10:41:36 GMT 55.044857 -3.919289 39,000 133 481 -64
2018-02-21 10:41:33 GMT 55.051483 -3.931247 39,000 133 482 -64
2018-02-21 10:41:30 GMT 55.053955 -3.935771 39,000 133 480 -64
2018-02-21 10:41:27 GMT 55.059769 -3.946354 39,000 133 480 -64
2018-02-21 10:41:24 GMT 55.066689 -3.958907 39,000 133 481 0
2018-02-21 10:41:21 GMT 55.069016 -3.963076 39,000 133 481 0
2018-02-21 10:41:18 GMT 55.072403 -3.969215 39,000 133 481 0
2018-02-21 10:41:15 GMT 55.077164 -3.977883 38,975 133 480 0
2018-02-21 10:41:12 GMT 55.081879 -3.986583 39,000 133 480 0
2018-02-21 10:41:09 GMT 55.086334 -3.994695 38,975 133 480 0
2018-02-21 10:41:05 GMT 55.092911 -4.006698 38,975 133 480 -64
2018-02-21 10:41:02 GMT 55.097645 -4.015336 38,975 133 479 0
2018-02-21 10:40:59 GMT 55.101929 -4.023160 38,975 133 480 0
2018-02-21 10:40:55 GMT 55.108353 -4.034895 39,000 133 479 -64
2018-02-21 10:40:52 GMT 55.113239 -4.043801 39,000 133 479 -64
2018-02-21 10:40:48 GMT 55.120148 -4.056379 39,000 133 480 -64
2018-02-21 10:40:44 GMT 55.123947 -4.063360 38,975 133 479 -64
2018-02-21 10:40:41 GMT 55.129768 -4.073930 38,975 133 479 -64
2018-02-21 10:40:37 GMT 55.137077 -4.087330 38,975 133 479 -64
2018-02-21 10:40:34 GMT 55.141357 -4.095154 38,975 133 479 -64
2018-02-21 10:40:30 GMT 55.145966 -4.103560 39,000 133 479 -64
2018-02-21 10:40:27 GMT 55.151741 -4.114213 39,000 133 479 -64
2018-02-21 10:40:23 GMT 55.157730 -4.125043 39,000 133 479 -64
2018-02-21 10:40:20 GMT 55.161072 -4.131263 39,000 133 479 -64
2018-02-21 10:40:17 GMT 55.166290 -4.140715 39,000 133 479 -64
2018-02-21 10:40:14 GMT 55.171616 -4.150502 39,000 133 479 -64
2018-02-21 10:40:10 GMT 55.175766 -4.158083 39,000 133 479 -64
2018-02-21 10:40:07 GMT 55.181580 -4.168746 39,000 133 479 0
2018-02-21 10:40:04 GMT 55.186279 -4.177385 38,975 133 480 0
2018-02-21 10:40:01 GMT 55.190563 -4.185292 38,975 133 480 0
2018-02-21 10:39:58 GMT 55.195126 -4.193698 39,000 133 480 0
2018-02-21 10:39:55 GMT 55.199890 -4.202351 38,975 133 480 -64
2018-02-21 10:39:52 GMT 55.203693 -4.209345 39,000 133 480 -64
2018-02-21 10:39:49 GMT 55.208580 -4.218334 38,975 133 480 -64
2018-02-21 10:39:46 GMT 55.212387 -4.225374 38,975 133 479 -64
2018-02-21 10:39:43 GMT 55.219070 -4.237734 38,975 133 479 0
2018-02-21 10:39:39 GMT 55.223969 -4.246701 39,000 133 479 -64
2018-02-21 10:39:36 GMT 55.229576 -4.257036 39,000 133 479 -64
2018-02-21 10:39:33 GMT 55.232803 -4.262938 39,000 133 479 -64
2018-02-21 10:39:30 GMT 55.237656 -4.271985 39,000 133 479 -64
2018-02-21 10:39:26 GMT 55.244385 -4.284345 38,975 133 480 0
2018-02-21 10:39:23 GMT 55.247871 -4.290744 39,000 133 480 -64
2018-02-21 10:39:19 GMT 55.253689 -4.301480 39,000 133 480 -64
2018-02-21 10:39:16 GMT 55.259182 -4.311551 39,000 133 480 -64
2018-02-21 10:39:13 GMT 55.263744 -4.319957 39,000 133 480 -64
2018-02-21 10:39:10 GMT 55.268631 -4.328946 39,000 133 480 -64
2018-02-21 10:39:07 GMT 55.272446 -4.335964 38,975 133 479 -64
2018-02-21 10:39:04 GMT 55.276871 -4.344094 39,000 133 479 0
2018-02-21 10:39:01 GMT 55.282040 -4.353665 39,000 133 479 -64
2018-02-21 10:38:57 GMT 55.287689 -4.364077 39,000 133 479 -64
2018-02-21 10:38:54 GMT 55.293633 -4.375055 39,000 133 478 -64
2018-02-21 10:38:51 GMT 55.296375 -4.380049 39,000 133 478 -64
2018-02-21 10:38:48 GMT 55.301823 -4.390203 39,000 133 478 0
2018-02-21 10:38:44 GMT 55.309616 -4.404467 39,000 133 478 0
2018-02-21 10:38:41 GMT 55.313553 -4.411819 38,975 133 478 0
2018-02-21 10:38:38 GMT 55.318535 -4.421082 39,000 133 478 0
2018-02-21 10:38:35 GMT 55.320396 -4.424411 39,000 133 478 0
2018-02-21 10:38:32 GMT 55.326279 -4.435407 39,000 133 478 0
2018-02-21 10:38:28 GMT 55.331726 -4.445505 39,000 133 478 -64
2018-02-21 10:38:25 GMT 55.336132 -4.453708 39,000 133 478 0
2018-02-21 10:38:22 GMT 55.343216 -4.466912 39,000 133 478 -64
2018-02-21 10:38:19 GMT 55.345963 -4.472001 39,000 133 478 -64
2018-02-21 10:38:16 GMT 55.350494 -4.480402 38,975 133 478 0
2018-02-21 10:38:13 GMT 55.354752 -4.488319 39,000 133 478 0
2018-02-21 10:38:10 GMT 55.358803 -4.495905 38,975 133 478 0
2018-02-21 10:38:07 GMT 55.363495 -4.504637 38,975 133 478 0
2018-02-21 10:38:03 GMT 55.369858 -4.516512 39,000 133 478 0
2018-02-21 10:38:00 GMT 55.375900 -4.527740 38,975 133 478 0
2018-02-21 10:37:57 GMT 55.379658 -4.534773 39,000 133 478 -64
2018-02-21 10:37:52 GMT 55.387711 -4.549713 39,000 133 478 0
2018-02-21 10:37:49 GMT 55.391006 -4.555933 39,000 133 478 -64
2018-02-21 10:37:45 GMT 55.396931 -4.566900 39,000 133 478 -64
2018-02-21 10:37:42 GMT 55.402050 -4.576472 39,000 133 477 0
2018-02-21 10:37:39 GMT 55.406288 -4.584378 38,975 133 477 0
2018-02-21 10:37:36 GMT 55.410690 -4.592608 38,975 133 477 0
2018-02-21 10:37:32 GMT 55.417179 -4.604686 38,975 133 478 0
2018-02-21 10:37:29 GMT 55.421539 -4.612885 39,000 133 478 0
2018-02-21 10:37:26 GMT 55.426212 -4.621665 39,000 133 478 0
2018-02-21 10:37:21 GMT 55.433800 -4.635731 39,000 133 478 -64
2018-02-21 10:37:18 GMT 55.439571 -4.646468 39,000 133 478 -64
2018-02-21 10:37:15 GMT 55.442734 -4.652387 39,000 133 478 0
2018-02-21 10:37:12 GMT 55.448227 -4.662531 39,000 133 478 0
2018-02-21 10:37:09 GMT 55.452438 -4.670438 39,000 133 478 0
2018-02-21 10:37:06 GMT 55.455959 -4.677000 38,975 133 478 0
2018-02-21 10:37:02 GMT 55.463928 -4.691994 38,975 132 478 0
2018-02-21 10:36:59 GMT 55.469227 -4.701977 39,000 132 478 0
2018-02-21 10:36:56 GMT 55.471481 -4.706227 38,975 133 478 -64
2018-02-21 10:36:53 GMT 55.475967 -4.714716 39,000 133 478 -64
2018-02-21 10:36:50 GMT 55.480499 -4.723289 39,000 133 478 -64
2018-02-21 10:36:47 GMT 55.483841 -4.729531 38,975 133 478 -64
2018-02-21 10:36:44 GMT 55.490639 -4.742317 39,000 133 478 -64
2018-02-21 10:36:40 GMT 55.495285 -4.751088 38,975 133 478 -64
2018-02-21 10:36:37 GMT 55.501328 -4.762407 38,975 133 478 -64
2018-02-21 10:36:31 GMT 55.508560 -4.776056 38,975 133 478 -64
2018-02-21 10:36:28 GMT 55.514477 -4.787121 39,000 133 478 -64
2018-02-21 10:36:25 GMT 55.517349 -4.792536 39,000 133 478 -64
2018-02-21 10:36:22 GMT 55.522621 -4.802485 39,000 133 478 -64
2018-02-21 10:36:18 GMT 55.528473 -4.813510 39,000 133 478 -64
2018-02-21 10:36:15 GMT 55.534241 -4.824246 38,975 133 477 -64
2018-02-21 10:36:12 GMT 55.537098 -4.829693 39,000 133 477 -64
2018-02-21 10:36:09 GMT 55.542171 -4.839306 39,000 133 477 -64
2018-02-21 10:36:06 GMT 55.546410 -4.847288 39,000 133 477 -64
2018-02-21 10:36:01 GMT 55.554062 -4.861783 39,000 133 477 -64
2018-02-21 10:35:58 GMT 55.559303 -4.871664 39,000 133 477 -64
2018-02-21 10:35:55 GMT 55.562935 -4.878531 39,000 132 476 -64
2018-02-21 10:35:52 GMT 55.569992 -4.891829 39,000 132 476 -64
2018-02-21 10:35:49 GMT 55.572247 -4.896126 39,000 132 476 0
2018-02-21 10:35:46 GMT 55.578251 -4.907455 38,975 132 476 0
2018-02-21 10:35:43 GMT 55.582260 -4.915133 38,975 132 476 0
2018-02-21 10:35:40 GMT 55.586792 -4.923623 39,000 132 476 -64
2018-02-21 10:35:37 GMT 55.589767 -4.929366 39,000 133 476 0
2018-02-21 10:35:34 GMT 55.593521 -4.936380 38,975 133 476 0
2018-02-21 10:35:31 GMT 55.599655 -4.948009 38,975 133 476 0
2018-02-21 10:35:28 GMT 55.603271 -4.954834 38,975 133 476 0
2018-02-21 10:35:25 GMT 55.608353 -4.964489 38,975 133 476 0
2018-02-21 10:35:21 GMT 55.613434 -4.974143 39,000 132 475 0
2018-02-21 10:35:18 GMT 55.619591 -4.985819 39,000 132 475 -64
2018-02-21 10:35:15 GMT 55.623642 -4.993453 38,975 132 476 -64
2018-02-21 10:35:11 GMT 55.628853 -5.003414 39,000 133 476 -64
2018-02-21 10:35:08 GMT 55.633369 -5.011911 39,000 132 476 -64
2018-02-21 10:35:05 GMT 55.639481 -5.023582 39,000 132 476 -64
2018-02-21 10:35:01 GMT 55.644447 -5.032940 39,000 132 476 -64
2018-02-21 10:34:58 GMT 55.648499 -5.040644 39,000 132 476 0
2018-02-21 10:34:55 GMT 55.654175 -5.051464 38,975 132 476 0
2018-02-21 10:34:52 GMT 55.656410 -5.055771 38,975 132 476 0
2018-02-21 10:34:49 GMT 55.662418 -5.067101 38,975 132 476 0
2018-02-21 10:34:46 GMT 55.666607 -5.075169 38,975 132 476 -64
2018-02-21 10:34:43 GMT 55.670929 -5.083424 38,975 132 476 -64
2018-02-21 10:34:40 GMT 55.675266 -5.091648 39,000 132 476 -64
2018-02-21 10:34:37 GMT 55.679306 -5.099404 38,975 132 476 -64
2018-02-21 10:34:34 GMT 55.684067 -5.108476 39,000 132 476 -64
2018-02-21 10:34:31 GMT 55.690659 -5.121044 39,000 132 476 -64
2018-02-21 10:34:28 GMT 55.693680 -5.126787 39,000 132 476 -64
2018-02-21 10:34:25 GMT 55.698914 -5.136795 39,000 132 476 -64
2018-02-21 10:34:22 GMT 55.702499 -5.143576 39,000 132 476 0
2018-02-21 10:34:17 GMT 55.709343 -5.156708 39,000 132 476 -64
2018-02-21 10:34:14 GMT 55.714600 -5.166737 39,000 132 476 0
2018-02-21 10:34:11 GMT 55.718491 -5.174144 39,000 132 476 0
2018-02-21 10:34:08 GMT 55.724442 -5.185547 38,975 132 476 0
2018-02-21 10:34:05 GMT 55.727417 -5.191290 39,000 132 475 0
2018-02-21 10:34:02 GMT 55.731735 -5.199537 39,000 132 475 0
2018-02-21 10:33:59 GMT 55.737411 -5.210352 38,975 132 475 0
2018-02-21 10:33:56 GMT 55.740395 -5.216017 38,975 132 474 0
2018-02-21 10:33:52 GMT 55.747101 -5.228910 38,975 132 474 -64
2018-02-21 10:33:49 GMT 55.751377 -5.237131 38,975 132 474 -64
2018-02-21 10:33:46 GMT 55.755112 -5.244307 38,975 132 474 -64
2018-02-21 10:33:43 GMT 55.760468 -5.254544 39,000 132 474 -64
2018-02-21 10:33:39 GMT 55.766968 -5.267112 39,000 132 474 -64
2018-02-21 10:33:36 GMT 55.770859 -5.274519 39,000 132 474 -64
2018-02-21 10:33:32 GMT 55.777214 -5.286827 39,000 132 474 -64
2018-02-21 10:33:27 GMT 55.784664 -5.301075 39,000 132 474 0
2018-02-21 10:33:24 GMT 55.788200 -5.307941 39,000 132 474 0
2018-02-21 10:33:21 GMT 55.792343 -5.315924 39,000 132 474 0
2018-02-21 10:33:17 GMT 55.800957 -5.332489 39,000 132 474 -64
2018-02-21 10:33:13 GMT 55.805237 -5.340770 39,000 132 474 -64
2018-02-21 10:33:09 GMT 55.810867 -5.351590 39,000 132 474 0
2018-02-21 10:33:06 GMT 55.816364 -5.362186 39,000 132 474 0
2018-02-21 10:33:03 GMT 55.820663 -5.370483 39,000 132 474 0
2018-02-21 10:32:58 GMT 55.826420 -5.381584 38,975 132 473 0
2018-02-21 10:32:55 GMT 55.831284 -5.391041 39,000 132 473 0
2018-02-21 10:32:52 GMT 55.836319 -5.400779 38,975 132 473 0
2018-02-21 10:32:48 GMT 55.841309 -5.410434 38,975 132 473 0
2018-02-21 10:32:45 GMT 55.846619 -5.420754 39,000 132 473 0
2018-02-21 10:32:42 GMT 55.851234 -5.429564 38,975 132 473 -64
2018-02-21 10:32:38 GMT 55.856369 -5.439647 38,975 132 473 0
2018-02-21 10:32:35 GMT 55.862274 -5.451050 39,000 132 473 -64
2018-02-21 10:32:31 GMT 55.865990 -5.458231 39,000 132 473 -64
2018-02-21 10:32:28 GMT 55.871429 -5.468778 38,975 132 473 -64
2018-02-21 10:32:24 GMT 55.876606 -5.478830 39,000 132 473 -64
2018-02-21 10:32:21 GMT 55.880905 -5.487088 39,000 132 473 -64
2018-02-21 10:32:18 GMT 55.885777 -5.496597 38,975 132 473 -64
2018-02-21 10:32:15 GMT 55.890930 -5.506647 39,000 132 474 0
2018-02-21 10:32:12 GMT 55.894775 -5.514055 39,000 132 474 0
2018-02-21 10:32:09 GMT 55.899647 -5.523548 39,000 132 474 0
2018-02-21 10:32:06 GMT 55.905838 -5.535564 38,975 132 474 0
2018-02-21 10:32:03 GMT 55.907455 -5.538774 39,000 132 474 0
2018-02-21 10:32:00 GMT 55.911896 -5.547347 38,975 132 474 0
2018-02-21 10:31:57 GMT 55.916336 -5.556003 38,975 132 474 0
2018-02-21 10:31:54 GMT 55.922085 -5.567236 38,975 132 474 0
2018-02-21 10:31:50 GMT 55.927952 -5.578651 39,000 132 474 0
2018-02-21 10:31:45 GMT 55.935196 -5.592790 39,000 132 473 -64
2018-02-21 10:31:42 GMT 55.939777 -5.601654 39,000 132 473 -64
2018-02-21 10:31:39 GMT 55.944199 -5.610237 38,975 132 472 0
2018-02-21 10:31:34 GMT 55.951275 -5.624056 38,975 132 472 0
2018-02-21 10:31:31 GMT 55.954926 -5.631242 39,000 132 472 0
2018-02-21 10:31:28 GMT 55.961700 -5.644393 38,975 132 472 0
2018-02-21 10:31:24 GMT 55.966690 -5.654214 38,975 132 472 0
2018-02-21 10:31:21 GMT 55.969666 -5.659956 38,975 132 472 0
2018-02-21 10:31:18 GMT 55.974503 -5.669374 38,975 132 472 0
2018-02-21 10:31:14 GMT 55.981155 -5.682262 38,975 132 472 -64
2018-02-21 10:31:10 GMT 55.987015 -5.693748 39,000 132 472 -64
2018-02-21 10:31:06 GMT 55.992752 -5.704994 39,000 132 472 -64
2018-02-21 10:31:03 GMT 55.997173 -5.713577 39,000 132 472 -64
2018-02-21 10:31:00 GMT 56.000107 -5.719328 39,000 132 472 -64
2018-02-21 10:30:57 GMT 56.005280 -5.729370 39,000 132 472 0
2018-02-21 10:30:53 GMT 56.011185 -5.740939 39,000 132 473 -64
2018-02-21 10:30:50 GMT 56.014984 -5.748430 39,000 132 472 -64
2018-02-21 10:30:46 GMT 56.021893 -5.761900 39,000 132 472 -64
2018-02-21 10:30:43 GMT 56.025990 -5.769968 39,000 132 472 -64
2018-02-21 10:30:40 GMT 56.030273 -5.778309 39,000 132 472 -64
2018-02-21 10:30:32 GMT 56.042313 -5.801946 39,000 132 472 0
2018-02-21 10:30:29 GMT 56.046707 -5.810602 39,000 132 472 0
2018-02-21 10:30:23 GMT 56.055923 -5.828762 39,000 132 472 0
2018-02-21 10:30:20 GMT 56.060486 -5.837735 39,000 132 472 0
2018-02-21 10:30:14 GMT 56.068539 -5.853653 38,975 132 472 0
2018-02-21 10:30:10 GMT 56.074406 -5.865154 38,975 132 472 0
2018-02-21 10:30:07 GMT 56.077942 -5.872107 38,975 132 472 0
2018-02-21 10:30:03 GMT 56.085857 -5.887728 38,975 132 473 0
2018-02-21 10:30:00 GMT 56.089676 -5.895195 38,975 132 473 0
2018-02-21 10:29:56 GMT 56.094177 -5.904153 38,975 132 473 -64
2018-02-21 10:29:52 GMT 56.101360 -5.918369 39,000 132 473 -64
2018-02-21 10:29:49 GMT 56.105026 -5.925626 39,000 132 473 -64
2018-02-21 10:29:46 GMT 56.109879 -5.935192 39,000 132 473 -64
2018-02-21 10:29:41 GMT 56.118675 -5.952530 39,000 132 474 -64
2018-02-21 10:29:38 GMT 56.121002 -5.957251 39,000 132 474 -64
2018-02-21 10:29:34 GMT 56.127476 -5.969954 39,000 132 474 -64
2018-02-21 10:29:31 GMT 56.133774 -5.982472 39,000 132 474 -64
2018-02-21 10:29:28 GMT 56.136272 -5.987377 39,000 132 474 -64
2018-02-21 10:29:24 GMT 56.142139 -5.999050 38,975 132 474 -64
2018-02-21 10:29:20 GMT 56.148842 -6.012354 39,000 132 474 -64
2018-02-21 10:29:17 GMT 56.151775 -6.018190 39,000 132 474 -64
2018-02-21 10:29:12 GMT 56.160294 -6.035099 39,000 132 474 0
2018-02-21 10:29:07 GMT 56.166000 -6.046392 39,000 132 474 0
2018-02-21 10:29:03 GMT 56.172024 -6.058359 38,975 132 474 0
2018-02-21 10:29:00 GMT 56.177845 -6.069946 39,000 132 473 64
2018-02-21 10:28:57 GMT 56.181381 -6.076984 38,975 132 474 0
2018-02-21 10:28:53 GMT 56.186508 -6.087175 38,975 132 474 0
2018-02-21 10:28:50 GMT 56.193111 -6.100245 39,000 132 473 0
2018-02-21 10:28:47 GMT 56.196167 -6.106401 39,000 132 473 0
2018-02-21 10:28:41 GMT 56.205078 -6.124191 39,000 131 474 -64
2018-02-21 10:28:38 GMT 56.209625 -6.133201 39,000 131 474 -64
2018-02-21 10:28:35 GMT 56.212555 -6.139027 39,000 131 474 -64
2018-02-21 10:28:32 GMT 56.218857 -6.151571 39,000 131 474 0
2018-02-21 10:28:29 GMT 56.222626 -6.159210 39,000 131 474 0
2018-02-21 10:28:26 GMT 56.226608 -6.167075 39,000 131 474 0
2018-02-21 10:28:23 GMT 56.230541 -6.175003 39,000 131 474 0
2018-02-21 10:28:20 GMT 56.235352 -6.184637 38,975 131 475 0
2018-02-21 10:28:17 GMT 56.239620 -6.193113 39,000 131 475 0
2018-02-21 10:28:13 GMT 56.246201 -6.206277 39,000 131 475 0
2018-02-21 10:28:10 GMT 56.250420 -6.214743 39,000 131 475 64
2018-02-21 10:28:07 GMT 56.254990 -6.223838 38,975 131 475 0
2018-02-21 10:28:04 GMT 56.260380 -6.234655 38,975 131 475 64
2018-02-21 10:28:00 GMT 56.264523 -6.242895 38,975 131 475 0
2018-02-21 10:27:57 GMT 56.269638 -6.253135 38,975 131 475 0
2018-02-21 10:27:54 GMT 56.272842 -6.259627 38,975 131 475 -64
2018-02-21 10:27:51 GMT 56.279022 -6.271945 39,000 131 475 -64
2018-02-21 10:27:48 GMT 56.282959 -6.279888 39,000 131 475 -64
2018-02-21 10:27:45 GMT 56.285751 -6.285428 39,000 131 475 -64
2018-02-21 10:27:41 GMT 56.293247 -6.300488 39,000 131 477 -64
2018-02-21 10:27:38 GMT 56.297951 -6.309843 39,000 131 477 0
2018-02-21 10:27:35 GMT 56.301487 -6.316881 39,000 131 477 0
2018-02-21 10:27:32 GMT 56.305584 -6.325207 38,975 131 477 0
2018-02-21 10:27:29 GMT 56.312805 -6.339611 38,975 131 478 0
2018-02-21 10:27:26 GMT 56.315140 -6.344355 38,975 131 478 0
2018-02-21 10:27:23 GMT 56.319855 -6.353760 38,975 131 478 0
2018-02-21 10:27:19 GMT 56.326035 -6.366161 38,975 131 478 0
2018-02-21 10:27:16 GMT 56.328964 -6.372070 39,000 131 478 -64
2018-02-21 10:27:13 GMT 56.333839 -6.381855 39,000 131 478 -64
2018-02-21 10:27:10 GMT 56.338989 -6.392212 39,000 131 478 -64
2018-02-21 10:27:06 GMT 56.346455 -6.407261 39,000 131 477 -64
2018-02-21 10:27:02 GMT 56.350273 -6.414986 39,000 131 478 -64
2018-02-21 10:26:58 GMT 56.357349 -6.429234 39,000 131 478 0
2018-02-21 10:26:55 GMT 56.359398 -6.433353 39,000 131 477 -64
2018-02-21 10:26:52 GMT 56.365128 -6.444980 39,000 131 478 -64
2018-02-21 10:26:49 GMT 56.369080 -6.452923 39,000 131 478 0
2018-02-21 10:26:45 GMT 56.374512 -6.463956 38,975 131 477 -64
2018-02-21 10:26:42 GMT 56.380417 -6.475858 39,000 131 478 -64
2018-02-21 10:26:37 GMT 56.387608 -6.490345 39,000 131 478 -64
2018-02-21 10:26:34 GMT 56.391426 -6.498156 39,000 131 478 -64
2018-02-21 10:26:31 GMT 56.395802 -6.506996 39,000 131 478 -64
2018-02-21 10:26:28 GMT 56.401669 -6.518927 39,000 131 478 -64
2018-02-21 10:26:24 GMT 56.406509 -6.528709 38,975 131 478 0
2018-02-21 10:26:20 GMT 56.410629 -6.537032 39,000 131 478 0
2018-02-21 10:26:17 GMT 56.415894 -6.547768 39,000 131 478 0
2018-02-21 10:26:14 GMT 56.420147 -6.556435 39,000 131 478 0
2018-02-21 10:26:10 GMT 56.426292 -6.568880 39,000 131 478 0
2018-02-21 10:26:07 GMT 56.431686 -6.579895 39,000 131 478 0
2018-02-21 10:26:04 GMT 56.436996 -6.590632 39,000 131 477 -64
2018-02-21 10:26:01 GMT 56.440796 -6.598372 38,975 131 478 0
2018-02-21 10:25:57 GMT 56.445053 -6.606989 39,000 131 478 -64
2018-02-21 10:25:54 GMT 56.450729 -6.618597 39,000 131 478 0
2018-02-21 10:25:51 GMT 56.453808 -6.624842 38,975 131 478 -64
2018-02-21 10:25:48 GMT 56.458649 -6.634743 39,000 131 478 -64
2018-02-21 10:25:44 GMT 56.463913 -6.645397 39,000 131 478 -64
2018-02-21 10:25:41 GMT 56.467865 -6.653423 39,000 131 478 -64
2018-02-21 10:25:37 GMT 56.473846 -6.665705 39,000 131 478 -64
2018-02-21 10:25:34 GMT 56.479156 -6.676442 39,000 131 478 -64
2018-02-21 10:25:30 GMT 56.485291 -6.688926 39,000 131 478 0
2018-02-21 10:25:27 GMT 56.490234 -6.699080 39,000 131 478 0
2018-02-21 10:25:23 GMT 56.494629 -6.707986 38,975 131 478 0
2018-02-21 10:25:20 GMT 56.500168 -6.719305 39,000 131 478 0
2018-02-21 10:25:17 GMT 56.503693 -6.726463 38,975 131 478 0
2018-02-21 10:25:14 GMT 56.508041 -6.735451 39,000 131 477 0
2018-02-21 10:25:11 GMT 56.514496 -6.748519 39,000 131 477 -64
2018-02-21 10:25:07 GMT 56.518421 -6.756592 39,000 131 477 -64
2018-02-21 10:25:03 GMT 56.525124 -6.770325 39,000 131 477 0
2018-02-21 10:24:59 GMT 56.530243 -6.780812 39,000 131 477 0
2018-02-21 10:24:56 GMT 56.533722 -6.787969 39,000 131 477 0
2018-02-21 10:24:53 GMT 56.538986 -6.798706 39,000 131 477 0
2018-02-21 10:24:49 GMT 56.545990 -6.813022 38,975 131 477 0
2018-02-21 10:24:46 GMT 56.549889 -6.821136 38,975 131 477 0
2018-02-21 10:24:43 GMT 56.553429 -6.828260 38,975 131 477 0
2018-02-21 10:24:40 GMT 56.557480 -6.836672 38,975 131 477 0
2018-02-21 10:24:36 GMT 56.564182 -6.850405 38,975 131 477 0
2018-02-21 10:24:33 GMT 56.568100 -6.858465 39,000 131 476 -64
2018-02-21 10:24:29 GMT 56.573212 -6.868858 39,000 131 476 0
2018-02-21 10:24:26 GMT 56.580048 -6.882935 38,975 131 476 0
2018-02-21 10:24:23 GMT 56.583801 -6.890758 38,975 131 476 -64
2018-02-21 10:24:18 GMT 56.590210 -6.903908 39,000 131 476 -64
2018-02-21 10:24:15 GMT 56.593414 -6.910400 39,000 131 476 -64
2018-02-21 10:24:12 GMT 56.598492 -6.920944 39,000 131 476 -64
2018-02-21 10:24:06 GMT 56.607651 -6.939754 39,000 131 476 -64
2018-02-21 10:24:03 GMT 56.611294 -6.947258 39,000 131 476 -64
2018-02-21 10:24:00 GMT 56.614883 -6.954689 39,000 131 476 0
2018-02-21 10:23:56 GMT 56.623306 -6.972113 39,000 131 476 0
2018-02-21 10:23:53 GMT 56.626190 -6.978121 38,975 131 476 0
2018-02-21 10:23:50 GMT 56.630539 -6.987047 39,000 131 476 0
2018-02-21 10:23:45 GMT 56.637222 -7.000866 39,000 131 476 0
2018-02-21 10:23:42 GMT 56.642990 -7.012796 39,000 131 476 -64
2018-02-21 10:23:37 GMT 56.649673 -7.026615 39,000 131 476 0
2018-02-21 10:23:34 GMT 56.654167 -7.035857 39,000 131 475 0
2018-02-21 10:23:31 GMT 56.657890 -7.043654 39,000 131 475 0
2018-02-21 10:23:27 GMT 56.663223 -7.054768 38,975 131 475 0
2018-02-21 10:23:24 GMT 56.668716 -7.066097 38,975 131 475 0
2018-02-21 10:23:20 GMT 56.672928 -7.074841 38,975 131 475 0
2018-02-21 10:23:17 GMT 56.678978 -7.087333 38,975 131 474 64
2018-02-21 10:23:14 GMT 56.682587 -7.094851 39,000 131 474 0
2018-02-21 10:23:11 GMT 56.687359 -7.104699 39,000 131 474 -64
2018-02-21 10:23:04 GMT 56.697414 -7.125697 39,000 131 474 0
2018-02-21 10:23:00 GMT 56.702301 -7.135886 39,000 131 474 0
2018-02-21 10:22:56 GMT 56.707947 -7.147551 38,975 131 474 0
2018-02-21 10:22:53 GMT 56.712124 -7.156264 39,000 131 474 0
2018-02-21 10:22:50 GMT 56.716732 -7.165833 39,000 131 474 -64
2018-02-21 10:22:46 GMT 56.722641 -7.178106 39,000 131 474 0
2018-02-21 10:22:43 GMT 56.727951 -7.189223 39,000 131 474 -64
2018-02-21 10:22:40 GMT 56.731724 -7.197020 39,000 131 474 -64
2018-02-21 10:22:35 GMT 56.742783 -7.220078 39,000 131 474 0
2018-02-21 10:22:32 GMT 56.744522 -7.223682 39,000 131 474 0
2018-02-21 10:22:29 GMT 56.746536 -7.227888 39,000 131 474 0
2018-02-21 10:22:22 GMT 56.757751 -7.251320 39,000 130 474 0
2018-02-21 10:22:19 GMT 56.761185 -7.258530 39,000 130 474 0
2018-02-21 10:22:12 GMT 56.772400 -7.281961 39,000 130 474 0
2018-02-21 10:22:09 GMT 56.776108 -7.289858 38,975 130 474 0
2018-02-21 10:22:03 GMT 56.784164 -7.306681 39,000 130 474 -64
2018-02-21 10:21:59 GMT 56.790482 -7.319899 39,000 130 474 -64
2018-02-21 10:21:52 GMT 56.800110 -7.340019 39,000 131 474 -64
2018-02-21 10:21:49 GMT 56.805275 -7.350917 39,000 131 474 -64
2018-02-21 10:21:44 GMT 56.813328 -7.367751 39,000 130 474 0
2018-02-21 10:21:41 GMT 56.816772 -7.374927 39,000 130 474 0
2018-02-21 10:21:38 GMT 56.820374 -7.382469 39,000 130 474 0
2018-02-21 10:21:33 GMT 56.827389 -7.397254 39,000 130 474 64
2018-02-21 10:21:30 GMT 56.831818 -7.406588 38,975 130 474 64
2018-02-21 10:21:27 GMT 56.835526 -7.414398 39,000 130 473 64
2018-02-21 10:21:23 GMT 56.842007 -7.427910 38,975 130 473 64
2018-02-21 10:21:18 GMT 56.849304 -7.443323 38,975 130 473 0
2018-02-21 10:21:15 GMT 56.852573 -7.450237 38,975 130 473 0
2018-02-21 10:21:12 GMT 56.858021 -7.461666 38,975 130 473 0
2018-02-21 10:21:07 GMT 56.863861 -7.474051 39,000 130 473 -64
2018-02-21 10:21:01 GMT 56.872589 -7.492410 39,000 130 474 -64
2018-02-21 10:20:58 GMT 56.878464 -7.504778 38,975 130 474 -64
2018-02-21 10:20:53 GMT 56.886044 -7.520850 38,975 130 474 -64
2018-02-21 10:20:50 GMT 56.889633 -7.528381 38,975 130 474 -64
2018-02-21 10:20:47 GMT 56.893341 -7.536278 39,000 130 474 -64
2018-02-21 10:20:43 GMT 56.899338 -7.548895 39,000 130 474 -64
2018-02-21 10:20:40 GMT 56.904465 -7.559795 38,975 130 474 -64
2018-02-21 10:20:37 GMT 56.908173 -7.567692 39,000 130 474 -64
2018-02-21 10:20:32 GMT 56.914906 -7.581895 39,000 130 473 -64
2018-02-21 10:20:29 GMT 56.919189 -7.591021 39,000 130 473 0
2018-02-21 10:20:26 GMT 56.922913 -7.598818 39,000 130 473 0
2018-02-21 10:20:22 GMT 56.931431 -7.616981 39,000 130 473 0
2018-02-21 10:20:19 GMT 56.933578 -7.621593 39,000 130 473 0
2018-02-21 10:20:16 GMT 56.937012 -7.628803 39,000 130 473 -64
2018-02-21 10:20:12 GMT 56.943878 -7.643394 39,000 130 473 0
2018-02-21 10:20:09 GMT 56.948006 -7.652155 39,000 130 473 0
2018-02-21 10:20:06 GMT 56.951405 -7.659420 39,000 130 473 0
2018-02-21 10:20:02 GMT 56.958244 -7.673950 38,975 130 473 0
2018-02-21 10:19:59 GMT 56.963135 -7.684228 38,975 130 473 0
2018-02-21 10:19:56 GMT 56.966534 -7.691581 38,975 130 473 0
2018-02-21 10:19:52 GMT 56.972626 -7.704592 39,000 130 473 0
2018-02-21 10:19:49 GMT 56.977478 -7.714891 39,000 130 473 0
2018-02-21 10:19:46 GMT 56.980778 -7.721882 39,000 130 473 0
2018-02-21 10:19:41 GMT 56.987293 -7.735881 38,975 130 473 0
2018-02-21 10:19:36 GMT 56.995697 -7.753773 38,975 130 473 0
2018-02-21 10:19:31 GMT 57.001648 -7.766476 39,000 130 473 0
2018-02-21 10:19:28 GMT 57.006226 -7.776260 38,975 130 473 0
2018-02-21 10:19:25 GMT 57.010483 -7.785358 38,975 130 473 0
2018-02-21 10:19:21 GMT 57.016159 -7.797546 39,000 130 473 0
2018-02-21 10:19:18 GMT 57.020859 -7.807558 39,000 130 473 0
2018-02-21 10:19:15 GMT 57.024445 -7.815142 39,000 130 473 -64
2018-02-21 10:19:11 GMT 57.030396 -7.827930 39,000 130 473 0
2018-02-21 10:19:08 GMT 57.035381 -7.838568 39,000 130 473 -64
2018-02-21 10:19:04 GMT 57.039780 -7.848015 39,000 130 473 -64
2018-02-21 10:19:00 GMT 57.045624 -7.860541 39,000 130 474 -64
2018-02-21 10:18:55 GMT 57.053585 -7.877552 39,000 130 474 0
2018-02-21 10:18:51 GMT 57.060101 -7.891639 39,000 130 474 -64
2018-02-21 10:18:47 GMT 57.064384 -7.900765 39,000 130 475 0
2018-02-21 10:18:44 GMT 57.068390 -7.909359 39,000 130 475 0
2018-02-21 10:18:40 GMT 57.074348 -7.922206 39,000 130 475 0
2018-02-21 10:18:37 GMT 57.078629 -7.931332 39,000 130 475 0
2018-02-21 10:18:34 GMT 57.082912 -7.940546 39,000 130 475 0
2018-02-21 10:18:30 GMT 57.088593 -7.952773 39,000 130 475 0
2018-02-21 10:18:26 GMT 57.093990 -7.964379 39,000 130 475 0
2018-02-21 10:18:19 GMT 57.103954 -7.985820 39,000 130 475 64
2018-02-21 10:18:16 GMT 57.107960 -7.994414 39,000 130 475 64
2018-02-21 10:18:13 GMT 57.113800 -8.006973 38,975 130 475 64
2018-02-21 10:18:09 GMT 57.118057 -8.016157 38,975 130 486 -128
2018-02-21 10:18:06 GMT 57.122482 -8.025690 38,975 130 478 128
2018-02-21 10:18:03 GMT 57.126617 -8.034611 38,975 130 477 64
2018-02-21 10:17:59 GMT 57.131886 -8.046068 38,975 130 478 128
2018-02-21 10:17:56 GMT 57.137333 -8.057763 38,975 130 478 128
2018-02-21 10:17:49 GMT 57.146622 -8.077955 38,975 130 481 64
2018-02-21 10:17:45 GMT 57.152390 -8.090401 38,975 130 493 0
2018-02-21 10:17:39 GMT 57.161591 -8.110399 38,975 130 486 -128
2018-02-21 10:17:36 GMT 57.165775 -8.119517 39,000 130 493 0
2018-02-21 10:17:29 GMT 57.175598 -8.140958 39,000 130 488 -192
2018-02-21 10:17:26 GMT 57.180679 -8.152027 38,975 130 493 0
2018-02-21 10:17:19 GMT 57.190613 -8.173656 39,000 130 491 -64
2018-02-21 10:17:15 GMT 57.195877 -8.185158 39,000 130 492 -64
2018-02-21 10:17:08 GMT 57.205856 -8.206873 39,000 130 493 0
2018-02-21 10:17:05 GMT 57.211025 -8.218039 39,000 130 493 0
2018-02-21 10:16:58 GMT 57.220428 -8.238506 39,000 130 493 0
2018-02-21 10:16:55 GMT 57.225410 -8.249315 39,000 130 492 -64
2018-02-21 10:16:48 GMT 57.235699 -8.271730 39,000 130 493 -64
2018-02-21 10:16:45 GMT 57.240677 -8.282628 39,000 130 493 0
2018-02-21 10:16:38 GMT 57.250488 -8.304119 39,000 130 493 0
2018-02-21 10:16:35 GMT 57.255478 -8.315020 39,000 130 493 0
2018-02-21 10:16:28 GMT 57.265732 -8.337421 38,975 130 493 0
2018-02-21 10:16:25 GMT 57.270004 -8.346774 38,975 130 493 0
2018-02-21 10:16:15 GMT 57.285370 -8.380423 38,975 130 493 0
2018-02-21 10:16:07 GMT 57.295471 -8.402592 38,975 130 492 0
2018-02-21 10:16:04 GMT 57.300018 -8.412523 38,975 130 492 64
2018-02-21 10:15:58 GMT 57.310867 -8.436298 38,975 130 492 -64
2018-02-21 10:15:54 GMT 57.315262 -8.445911 38,975 130 491 -64
2018-02-21 10:15:47 GMT 57.325195 -8.467712 39,000 130 491 -64
We lost coverage of the aircraft here for a total of 302 minutes
2018-02-21 05:14:10 GMT 48.035671 -89.871330 37,000 52 649 -64
2018-02-21 05:13:48 GMT 47.996841 -89.947884 36,975 52 648 -64
2018-02-21 05:13:29 GMT 47.960678 -90.018883 37,000 52 647 0
2018-02-21 05:13:19 GMT 47.942963 -90.053627 37,000 52 647 0
2018-02-21 05:13:06 GMT 47.918266 -90.102119 36,975 52 645 -64
2018-02-21 05:12:52 GMT 47.890800 -90.155708 37,000 52 644 -64
2018-02-21 05:12:40 GMT 47.872604 -90.191231 37,000 52 644 0
2018-02-21 05:12:07 GMT 47.812824 -90.307549 37,000 52 644 0
2018-02-21 05:11:56 GMT 47.794876 -90.342293 36,975 52 644 0
2018-02-21 05:11:46 GMT 47.775909 -90.379097 36,975 52 644 0
2018-02-21 05:11:35 GMT 47.756149 -90.417343 36,975 52 645 -64
We lost coverage of the aircraft here for a total of 9 minutes
2018-02-21 05:02:10 GMT 46.730118 -92.369095 36,975 57 635 64
2018-02-21 05:02:02 GMT 46.719315 -92.393990 37,000 57 635 -64
2018-02-21 05:01:54 GMT 46.708000 -92.419945 37,000 57 634 -64
2018-02-21 05:00:00 GMT 46.528870 -92.828499 36,975 57 630 64
2018-02-21 04:59:43 GMT 46.502289 -92.888466 36,975 57 630 0
2018-02-21 04:59:34 GMT 46.489059 -92.918213 37,000 57 629 0
2018-02-21 04:59:28 GMT 46.479477 -92.939873 36,975 57 629 0
2018-02-21 04:59:18 GMT 46.463928 -92.974953 37,000 57 629 -64
2018-02-21 04:59:09 GMT 46.447861 -93.010994 37,000 57 630 -64
2018-02-21 04:58:59 GMT 46.430832 -93.049240 37,000 57 630 0
2018-02-21 04:58:48 GMT 46.415359 -93.083946 36,975 57 631 0
2018-02-21 04:58:37 GMT 46.398384 -93.121765 37,000 57 631 -64
2018-02-21 04:58:27 GMT 46.382721 -93.156830 37,000 57 632 -64
2018-02-21 04:58:16 GMT 46.366074 -93.194069 36,975 57 632 64
2018-02-21 04:58:05 GMT 46.344955 -93.241165 36,975 57 632 0
2018-02-21 04:57:55 GMT 46.332275 -93.269501 37,000 57 632 0
2018-02-21 04:57:43 GMT 46.312912 -93.312645 36,975 57 632 -64
2018-02-21 04:57:36 GMT 46.299866 -93.341652 36,975 57 632 -64
2018-02-21 04:57:25 GMT 46.283661 -93.377762 37,000 57 632 -64
2018-02-21 04:57:15 GMT 46.266918 -93.414825 37,000 56 633 -64
2018-02-21 04:57:03 GMT 46.249741 -93.453072 37,000 56 633 0
2018-02-21 04:56:53 GMT 46.233627 -93.488762 37,000 56 632 64
2018-02-21 04:56:43 GMT 46.216370 -93.526810 36,975 56 632 128
2018-02-21 04:56:33 GMT 46.200211 -93.562454 36,975 56 632 64
2018-02-21 04:56:23 GMT 46.182846 -93.600494 36,975 56 634 -64
2018-02-21 04:56:12 GMT 46.167110 -93.635101 37,000 56 634 -64
2018-02-21 04:56:01 GMT 46.150074 -93.672523 37,000 56 636 -64
2018-02-21 04:55:52 GMT 46.133789 -93.708290 36,975 56 636 0
2018-02-21 04:55:41 GMT 46.117161 -93.744690 37,000 56 636 0
2018-02-21 04:55:30 GMT 46.100189 -93.781776 36,975 56 635 0
2018-02-21 04:55:20 GMT 46.083389 -93.818420 37,000 56 635 -64
2018-02-21 04:55:09 GMT 46.066223 -93.855797 36,975 56 636 0
2018-02-21 04:54:59 GMT 46.049519 -93.892113 36,975 56 636 -64
2018-02-21 04:54:49 GMT 46.034042 -93.926476 37,000 57 636 -64
2018-02-21 04:54:38 GMT 46.016602 -93.966599 37,000 58 636 -64
2018-02-21 04:54:28 GMT 46.000641 -94.004517 37,000 59 636 -64
2018-02-21 04:54:17 GMT 45.984905 -94.043106 37,000 60 634 64
2018-02-21 04:53:34 GMT 45.923721 -94.203407 36,975 61 634 0
2018-02-21 04:53:26 GMT 45.913422 -94.230743 37,000 61 634 -64
2018-02-21 04:53:15 GMT 45.897667 -94.272514 37,000 61 635 -64
2018-02-21 04:53:05 GMT 45.883301 -94.310661 37,000 61 636 -64
2018-02-21 04:52:55 GMT 45.869270 -94.348045 37,000 61 636 0
2018-02-21 04:52:45 GMT 45.854748 -94.386566 37,000 61 636 0
2018-02-21 04:52:33 GMT 45.839996 -94.425415 36,975 61 637 64
2018-02-21 04:52:24 GMT 45.825943 -94.462395 36,975 61 637 0
2018-02-21 04:52:13 GMT 45.811295 -94.500908 37,000 61 637 -64
2018-02-21 04:52:03 GMT 45.796463 -94.539757 37,000 61 637 0
2018-02-21 04:51:53 GMT 45.780960 -94.580475 36,975 61 637 64
2018-02-21 04:51:41 GMT 45.766434 -94.618546 36,975 61 636 64
2018-02-21 04:51:31 GMT 45.752518 -94.655045 36,975 61 636 -64
2018-02-21 04:51:21 GMT 45.737576 -94.694115 37,000 61 636 0
2018-02-21 04:51:10 GMT 45.722763 -94.732826 36,975 61 636 64
2018-02-21 04:51:01 GMT 45.708893 -94.768867 36,975 61 636 0
2018-02-21 04:50:50 GMT 45.693878 -94.807861 37,000 61 636 -64
2018-02-21 04:50:39 GMT 45.679413 -94.845375 37,000 61 636 0
2018-02-21 04:50:29 GMT 45.663696 -94.886101 37,000 61 636 -64
2018-02-21 04:50:19 GMT 45.649658 -94.922409 37,000 61 635 -64
2018-02-21 04:50:09 GMT 45.634506 -94.961563 37,000 61 634 64
2018-02-21 04:49:58 GMT 45.620075 -94.998848 36,975 61 633 64
2018-02-21 04:49:46 GMT 45.602711 -95.043343 36,975 60 632 0
2018-02-21 04:49:36 GMT 45.590004 -95.076096 37,000 61 631 -64
2018-02-21 04:49:26 GMT 45.574501 -95.116127 37,000 61 630 -64
2018-02-21 04:49:17 GMT 45.561401 -95.149910 37,000 61 629 0
2018-02-21 04:49:06 GMT 45.546383 -95.188568 36,975 61 627 64
2018-02-21 04:48:56 GMT 45.531326 -95.227203 36,975 60 627 0
2018-02-21 04:48:45 GMT 45.517273 -95.263168 37,000 60 626 -64
2018-02-21 04:48:35 GMT 45.502350 -95.301292 37,000 60 625 -128
2018-02-21 04:48:25 GMT 45.488472 -95.336876 37,000 61 625 0
2018-02-21 04:48:14 GMT 45.473511 -95.375259 37,000 60 623 64
2018-02-21 04:48:04 GMT 45.458908 -95.412468 36,975 60 623 64
2018-02-21 04:47:53 GMT 45.443874 -95.450623 36,975 60 622 0
2018-02-21 04:47:43 GMT 45.429932 -95.485970 37,000 60 623 -64
2018-02-21 04:47:33 GMT 45.414688 -95.524551 37,000 60 624 -64
2018-02-21 04:47:21 GMT 45.399719 -95.562416 36,975 60 625 0
2018-02-21 04:47:11 GMT 45.384750 -95.600281 36,975 60 625 -64
2018-02-21 04:46:53 GMT 45.360222 -95.662048 37,000 60 625 0
2018-02-21 04:46:50 GMT 45.355427 -95.674240 37,000 60 625 64
2018-02-21 04:46:41 GMT 45.340530 -95.711647 36,975 60 624 64
2018-02-21 04:46:29 GMT 45.326065 -95.748009 37,000 60 624 0
2018-02-21 04:46:19 GMT 45.310875 -95.786179 37,000 60 625 0
2018-02-21 04:46:15 GMT 45.302868 -95.806076 36,975 60 624 -64
2018-02-21 04:46:09 GMT 45.296864 -95.821014 37,000 60 624 -64
2018-02-21 04:45:58 GMT 45.282108 -95.857994 36,975 60 623 64
2018-02-21 04:45:48 GMT 45.266739 -95.896782 36,975 60 623 128
2018-02-21 04:45:44 GMT 45.262482 -95.907440 36,975 60 623 64
2018-02-21 04:45:38 GMT 45.252640 -95.931877 37,025 60 623 -128
2018-02-21 04:45:27 GMT 45.237122 -95.970543 37,000 60 623 -128
2018-02-21 04:45:22 GMT 45.230072 -95.988266 37,025 60 624 -64
2018-02-21 04:45:16 GMT 45.221123 -96.010658 37,000 60 624 128
2018-02-21 04:44:57 GMT 45.192810 -96.080345 37,000 60 623 64
2018-02-21 04:44:45 GMT 45.177551 -96.118179 36,975 60 623 0
2018-02-21 04:44:35 GMT 45.161179 -96.158821 36,975 60 622 -64
2018-02-21 04:44:19 GMT 45.140587 -96.210022 36,975 60 621 0
2018-02-21 04:44:14 GMT 45.134026 -96.226234 36,975 60 622 0
2018-02-21 04:44:02 GMT 45.115356 -96.272408 36,975 60 623 -64
2018-02-21 04:43:27 GMT 45.066479 -96.392502 37,000 60 623 -64
2018-02-21 04:43:10 GMT 45.040237 -96.456886 37,000 60 623 64
2018-02-21 04:42:52 GMT 45.014755 -96.519112 37,000 60 622 128
2018-02-21 04:42:05 GMT 44.947586 -96.683807 36,975 59 625 -192
2018-02-21 04:40:43 GMT 44.828873 -96.969955 36,975 59 627 64
2018-02-21 04:40:38 GMT 44.822021 -96.986519 36,975 59 627 64
2018-02-21 04:40:22 GMT 44.797592 -97.045181 37,000 59 626 64
2018-02-21 04:40:16 GMT 44.786793 -97.071175 37,000 59 626 0
2018-02-21 04:39:56 GMT 44.758621 -97.138893 37,000 59 626 64
2018-02-21 04:39:48 GMT 44.748154 -97.163757 37,000 59 627 -64
2018-02-21 04:39:38 GMT 44.733673 -97.198463 37,000 59 627 64
2018-02-21 04:39:28 GMT 44.719429 -97.232422 36,975 59 626 128
2018-02-21 04:39:16 GMT 44.701412 -97.274956 36,975 59 626 0
2018-02-21 04:38:36 GMT 44.642570 -97.414703 36,975 59 627 -64
2018-02-21 04:38:30 GMT 44.633450 -97.436401 37,000 59 627 -64
2018-02-21 04:38:26 GMT 44.625916 -97.454224 37,000 59 627 -64
2018-02-21 04:38:15 GMT 44.611450 -97.488426 36,975 59 627 0
2018-02-21 04:38:05 GMT 44.596531 -97.523689 36,975 59 626 0
2018-02-21 04:37:52 GMT 44.578190 -97.566902 37,000 59 626 0
2018-02-21 04:37:48 GMT 44.570068 -97.586060 36,975 59 626 -64
2018-02-21 04:37:43 GMT 44.565033 -97.597832 36,975 59 626 -64
2018-02-21 04:37:33 GMT 44.548141 -97.637527 37,000 59 626 -64
2018-02-21 04:37:19 GMT 44.527725 -97.685524 36,975 59 626 -64
2018-02-21 04:37:15 GMT 44.522964 -97.696640 36,975 59 626 -64
2018-02-21 04:35:36 GMT 44.375595 -98.039780 37,000 59 625 -64
2018-02-21 04:34:20 GMT 44.262222 -98.301216 36,975 58 628 0
2018-02-21 04:34:03 GMT 44.237103 -98.358986 36,975 58 628 -64
2018-02-21 04:32:55 GMT 44.134506 -98.593163 37,000 58 629 64
2018-02-21 04:32:52 GMT 44.129799 -98.603867 36,975 58 629 64
2018-02-21 04:32:42 GMT 44.113693 -98.640358 36,975 58 629 0
2018-02-21 04:32:31 GMT 44.096699 -98.678940 37,000 58 629 -64
2018-02-21 04:32:14 GMT 44.072075 -98.734718 37,000 58 629 -64
2018-02-21 04:32:10 GMT 44.066162 -98.748116 36,975 58 628 64
2018-02-21 04:31:49 GMT 44.034256 -98.820358 37,000 58 629 -128
2018-02-21 04:31:33 GMT 44.008575 -98.878036 37,000 58 629 128
2018-02-21 04:31:28 GMT 44.002014 -98.892845 36,975 58 630 128
2018-02-21 04:31:17 GMT 43.984604 -98.932014 36,975 58 630 0
2018-02-21 04:31:04 GMT 43.965378 -98.975304 37,000 58 630 -64
2018-02-21 04:30:57 GMT 43.953411 -99.002052 37,000 58 630 -64
2018-02-21 04:30:46 GMT 43.937302 -99.037979 36,975 58 629 0
2018-02-21 04:30:32 GMT 43.916637 -99.084190 37,000 58 629 -64
2018-02-21 04:30:07 GMT 43.877670 -99.170967 36,975 58 628 0
2018-02-21 04:30:00 GMT 43.866966 -99.194839 37,000 58 628 -128
2018-02-21 04:29:53 GMT 43.855980 -99.219429 37,000 58 627 -64
2018-02-21 04:27:42 GMT 43.655319 -99.661903 36,975 57 625 0
2018-02-21 04:27:34 GMT 43.642639 -99.689430 36,975 57 623 0
2018-02-21 04:27:24 GMT 43.627968 -99.721268 37,000 57 623 -64
2018-02-21 04:26:58 GMT 43.585602 -99.812820 37,000 57 620 -64
2018-02-21 04:26:49 GMT 43.573872 -99.838127 37,000 57 620 0
2018-02-21 04:26:40 GMT 43.557346 -99.874092 36,975 57 619 0
2018-02-21 04:26:28 GMT 43.540215 -99.911369 37,000 57 618 -64
2018-02-21 04:26:18 GMT 43.524902 -99.944923 37,000 58 617 -64
2018-02-21 04:26:08 GMT 43.510002 -99.977943 37,000 58 616 64
2018-02-21 04:25:57 GMT 43.493664 -100.014694 37,000 58 616 64
2018-02-21 04:25:31 GMT 43.455677 -100.101799 36,975 59 614 -64
2018-02-21 04:25:23 GMT 43.444595 -100.127304 36,975 59 614 -64
2018-02-21 04:25:15 GMT 43.433350 -100.153091 37,000 59 615 -64
2018-02-21 04:25:03 GMT 43.412754 -100.200279 36,975 59 615 0
2018-02-21 04:24:54 GMT 43.401348 -100.226372 36,975 59 615 0
2018-02-21 04:24:44 GMT 43.385971 -100.261482 36,975 59 615 0
2018-02-21 04:24:32 GMT 43.370022 -100.297920 36,975 58 614 -64
2018-02-21 04:24:24 GMT 43.355484 -100.330978 37,000 58 616 -128
2018-02-21 04:24:02 GMT 43.325684 -100.398499 36,975 58 616 -64
2018-02-21 04:23:50 GMT 43.308758 -100.436882 37,000 58 616 -64
2018-02-21 04:23:40 GMT 43.293823 -100.470543 37,000 58 616 -64
2018-02-21 04:23:30 GMT 43.277893 -100.506569 36,975 58 615 0
2018-02-21 04:23:15 GMT 43.256699 -100.554474 37,000 58 615 0
2018-02-21 04:23:10 GMT 43.247223 -100.575813 36,975 58 615 0
2018-02-21 04:22:58 GMT 43.231888 -100.610367 36,975 58 615 -64
2018-02-21 04:22:48 GMT 43.216003 -100.646263 37,000 58 615 -64
2018-02-21 04:22:37 GMT 43.200756 -100.680473 37,000 58 614 64
2018-02-21 04:22:27 GMT 43.183502 -100.719269 36,975 58 613 64
2018-02-21 04:22:16 GMT 43.170273 -100.749039 37,000 58 613 -64
2018-02-21 04:22:07 GMT 43.154716 -100.783798 36,975 58 613 0
2018-02-21 04:21:56 GMT 43.139786 -100.817192 36,975 58 613 0
2018-02-21 04:21:45 GMT 43.124317 -100.851875 36,975 58 612 0
2018-02-21 04:21:35 GMT 43.108841 -100.886490 37,000 58 611 -64
2018-02-21 04:21:24 GMT 43.092957 -100.922005 37,000 58 610 -64
2018-02-21 04:21:14 GMT 43.077812 -100.955856 37,000 58 610 0
2018-02-21 04:21:02 GMT 43.061279 -100.992973 36,975 58 609 -64
2018-02-21 04:20:54 GMT 43.046761 -101.025436 37,000 58 609 -64
2018-02-21 04:20:42 GMT 43.030560 -101.061401 36,975 58 610 64
2018-02-21 04:18:45 GMT 42.855663 -101.446579 37,000 58 609 -64
2018-02-21 04:18:37 GMT 42.845284 -101.469337 37,000 58 608 -128
2018-02-21 04:18:27 GMT 42.829315 -101.504387 37,000 58 607 0
2018-02-21 04:18:06 GMT 42.798496 -101.571671 36,975 58 606 64
2018-02-21 04:17:35 GMT 42.753021 -101.671036 37,000 58 607 -128
2018-02-21 04:17:21 GMT 42.732193 -101.716293 37,000 57 607 64
2018-02-21 04:17:13 GMT 42.720886 -101.740829 36,975 57 607 64
2018-02-21 04:17:03 GMT 42.705208 -101.774727 36,975 57 607 64
2018-02-21 04:16:52 GMT 42.688774 -101.810173 37,000 57 607 0
2018-02-21 04:16:41 GMT 42.673599 -101.843071 37,000 57 606 0
2018-02-21 04:16:32 GMT 42.657864 -101.877182 37,000 57 605 0
2018-02-21 04:16:21 GMT 42.642792 -101.909615 37,000 57 604 -64
2018-02-21 04:16:11 GMT 42.626175 -101.945450 37,000 57 603 0
2018-02-21 04:15:59 GMT 42.611023 -101.978096 36,975 57 602 64
2018-02-21 04:15:50 GMT 42.595871 -102.010612 36,975 57 602 0
2018-02-21 04:15:38 GMT 42.579849 -102.045074 36,975 57 601 0
2018-02-21 04:15:28 GMT 42.562912 -102.081337 36,975 57 600 64
2018-02-21 04:15:18 GMT 42.549545 -102.109863 36,975 57 600 -64
2018-02-21 04:15:08 GMT 42.532219 -102.146980 37,000 57 600 -128
2018-02-21 04:14:55 GMT 42.515926 -102.181854 37,000 57 599 -128
2018-02-21 04:14:47 GMT 42.502892 -102.209709 37,000 57 599 -64
2018-02-21 04:14:35 GMT 42.486366 -102.245155 37,000 57 598 64
2018-02-21 04:14:24 GMT 42.468349 -102.283676 36,975 57 597 64
2018-02-21 04:14:15 GMT 42.456024 -102.309746 36,975 57 597 -64
2018-02-21 04:14:02 GMT 42.437439 -102.349144 37,000 57 597 -64
2018-02-21 04:13:52 GMT 42.422195 -102.381592 36,975 57 598 64
2018-02-21 04:13:43 GMT 42.408783 -102.409935 36,975 57 598 64
2018-02-21 04:13:33 GMT 42.393906 -102.441391 36,975 57 598 -64
2018-02-21 04:13:22 GMT 42.378597 -102.473763 37,000 57 598 -128
2018-02-21 04:13:13 GMT 42.362907 -102.507172 37,000 57 598 0
2018-02-21 04:13:02 GMT 42.347778 -102.539169 36,975 57 596 64
2018-02-21 04:12:52 GMT 42.331997 -102.572449 36,975 57 597 0
2018-02-21 04:12:40 GMT 42.315491 -102.607185 37,000 57 597 -128
2018-02-21 04:12:31 GMT 42.300934 -102.637901 37,000 57 598 0
2018-02-21 04:12:12 GMT 42.274227 -102.694000 36,975 57 597 64
2018-02-21 04:12:09 GMT 42.270039 -102.702751 36,975 57 598 64
2018-02-21 04:11:06 GMT 42.174976 -102.901337 37,000 57 597 -64
2018-02-21 04:10:41 GMT 42.137512 -102.979469 37,000 57 593 64
2018-02-21 04:10:32 GMT 42.124100 -103.007317 36,975 57 593 64
2018-02-21 04:10:08 GMT 42.087879 -103.082481 37,000 57 593 -128
2018-02-21 04:10:00 GMT 42.075729 -103.107841 37,000 57 593 -128
2018-02-21 04:09:49 GMT 42.059509 -103.141518 37,000 57 591 -64
2018-02-21 04:09:38 GMT 42.044537 -103.172668 37,000 57 591 0
2018-02-21 04:09:29 GMT 42.029251 -103.204376 37,000 57 590 0
2018-02-21 04:09:16 GMT 42.011810 -103.240646 36,975 57 589 128
2018-02-21 04:09:08 GMT 41.998314 -103.268547 36,975 56 589 64
2018-02-21 04:08:27 GMT 41.939026 -103.390961 37,000 57 591 0
2018-02-21 04:08:19 GMT 41.926018 -103.417564 37,000 56 590 64
2018-02-21 04:08:14 GMT 41.919685 -103.430405 36,975 56 591 64
2018-02-21 04:08:04 GMT 41.903019 -103.463875 36,975 55 591 -64
2018-02-21 04:07:31 GMT 41.852695 -103.561600 37,000 55 589 -64
2018-02-21 04:07:11 GMT 41.822159 -103.620560 37,000 55 589 -64
2018-02-21 04:06:46 GMT 41.782543 -103.697014 36,975 55 586 64
2018-02-21 04:06:23 GMT 41.747681 -103.763687 36,975 55 585 -64
2018-02-21 04:05:55 GMT 41.703552 -103.847771 37,000 55 585 -64
2018-02-21 04:05:22 GMT 41.649029 -103.951614 36,975 54 585 -128
2018-02-21 04:05:14 GMT 41.638184 -103.972313 36,975 54 585 -64
2018-02-21 04:04:59 GMT 41.614059 -104.017990 37,000 54 584 -64
2018-02-21 04:04:52 GMT 41.605682 -104.033913 37,000 54 584 -64
2018-02-21 04:04:45 GMT 41.594936 -104.054260 37,000 54 584 0
2018-02-21 04:04:35 GMT 41.578262 -104.085724 37,000 54 585 -64
2018-02-21 04:04:21 GMT 41.557835 -104.124268 36,975 54 584 -64
2018-02-21 04:04:15 GMT 41.548325 -104.142273 37,000 54 584 -64
2018-02-21 04:04:05 GMT 41.530609 -104.175797 37,000 54 584 -64
2018-02-21 04:03:53 GMT 41.514404 -104.206383 37,000 54 584 -64
2018-02-21 04:03:44 GMT 41.499161 -104.235222 37,000 54 585 0
2018-02-21 04:03:31 GMT 41.479439 -104.272583 36,975 54 584 64
2018-02-21 04:03:23 GMT 41.465660 -104.298454 36,975 54 586 64
2018-02-21 04:03:16 GMT 41.454803 -104.318680 37,000 54 585 0
2018-02-21 04:03:13 GMT 41.451508 -104.324829 36,975 54 587 0
2018-02-21 04:03:10 GMT 41.446609 -104.333977 37,000 54 587 0
2018-02-21 04:03:03 GMT 41.435402 -104.354851 36,975 54 587 64
2018-02-21 04:02:57 GMT 41.425625 -104.373055 37,000 54 589 -128
2018-02-21 04:02:51 GMT 41.416176 -104.390747 37,000 54 589 -128
2018-02-21 04:02:40 GMT 41.397182 -104.426132 37,000 54 589 -128
2018-02-21 04:02:34 GMT 41.389271 -104.440887 37,000 54 589 -128
2018-02-21 04:02:30 GMT 41.382286 -104.453888 37,000 54 589 -128
2018-02-21 04:02:18 GMT 41.365620 -104.485222 37,000 54 590 -64
2018-02-21 04:02:09 GMT 41.349281 -104.515999 37,000 54 589 128
2018-02-21 04:01:59 GMT 41.334595 -104.543457 36,975 54 589 128
2018-02-21 04:01:56 GMT 41.329834 -104.552246 36,975 54 589 64
2018-02-21 04:01:48 GMT 41.315762 -104.578484 37,000 54 589 -64
2018-02-21 04:01:37 GMT 41.299530 -104.608826 36,975 54 590 -64
2018-02-21 04:01:26 GMT 41.282455 -104.640625 37,000 54 589 -64
2018-02-21 04:01:21 GMT 41.275635 -104.653267 37,000 54 589 -64
2018-02-21 04:01:16 GMT 41.264790 -104.673241 36,975 54 590 0
2018-02-21 04:01:05 GMT 41.248260 -104.703827 36,975 55 589 -64
2018-02-21 04:00:54 GMT 41.231461 -104.736267 37,000 56 588 -128
2018-02-21 04:00:46 GMT 41.219959 -104.759445 37,000 58 587 64
2018-02-21 04:00:42 GMT 41.215118 -104.769470 37,000 57 587 0
2018-02-21 04:00:34 GMT 41.201431 -104.798462 36,975 58 587 64
2018-02-21 04:00:31 GMT 41.199150 -104.803329 36,975 58 586 128
2018-02-21 04:00:20 GMT 41.184219 -104.836243 37,000 59 586 64
2018-02-21 04:00:13 GMT 41.172382 -104.863190 37,000 60 585 -64
2018-02-21 04:00:10 GMT 41.169342 -104.870361 37,000 60 586 -64
2018-02-21 04:00:01 GMT 41.158356 -104.895935 37,000 60 586 -128
2018-02-21 03:59:58 GMT 41.153549 -104.907166 37,000 60 586 -192
2018-02-21 03:59:52 GMT 41.144871 -104.927483 37,000 60 586 -128
2018-02-21 03:59:48 GMT 41.140121 -104.938721 37,025 60 586 -128
2018-02-21 03:59:41 GMT 41.129974 -104.962440 37,000 60 586 64
2018-02-21 03:59:37 GMT 41.125580 -104.972717 37,000 60 585 128
2018-02-21 03:59:30 GMT 41.115494 -104.996025 36,975 60 585 128
2018-02-21 03:59:25 GMT 41.109585 -105.009697 37,000 60 585 128
2018-02-21 03:59:19 GMT 41.100494 -105.030518 36,950 60 586 64
2018-02-21 03:59:15 GMT 41.096146 -105.040466 36,975 60 587 0
2018-02-21 03:59:12 GMT 41.090195 -105.054199 37,000 60 588 -64
2018-02-21 03:59:09 GMT 41.087658 -105.060135 36,975 60 587 -64
2018-02-21 03:59:02 GMT 41.078842 -105.080383 36,975 60 588 -64
2018-02-21 03:58:59 GMT 41.072762 -105.094406 36,975 60 588 -64
2018-02-21 03:58:52 GMT 41.064194 -105.114075 36,975 60 588 0
2018-02-21 03:58:48 GMT 41.057648 -105.129028 36,975 59 589 -64
2018-02-21 03:58:43 GMT 41.051254 -105.143715 36,975 60 589 -128
2018-02-21 03:58:37 GMT 41.044456 -105.159264 37,000 60 589 -192
2018-02-21 03:58:32 GMT 41.036636 -105.177422 37,025 60 588 -320
2018-02-21 03:58:26 GMT 41.028442 -105.196472 37,025 60 588 -256
2018-02-21 03:58:21 GMT 41.021927 -105.211823 37,050 60 588 -128
2018-02-21 03:58:15 GMT 41.015549 -105.226868 37,025 59 587 0
2018-02-21 03:58:10 GMT 41.007614 -105.245300 37,000 60 587 320
2018-02-21 03:58:06 GMT 41.001816 -105.258636 36,975 60 587 320
2018-02-21 03:57:59 GMT 40.992737 -105.279480 36,950 59 587 256
2018-02-21 03:57:56 GMT 40.989059 -105.287849 36,950 59 587 192
2018-02-21 03:57:51 GMT 40.981937 -105.303894 36,950 59 587 0
2018-02-21 03:57:47 GMT 40.975929 -105.317566 36,975 59 587 -128
2018-02-21 03:57:44 GMT 40.972229 -105.325928 37,000 59 587 -192
2018-02-21 03:57:41 GMT 40.967606 -105.336426 37,000 59 587 -192
2018-02-21 03:57:36 GMT 40.962803 -105.347275 37,000 59 587 -192
2018-02-21 03:57:33 GMT 40.958038 -105.358154 37,025 59 588 -192
2018-02-21 03:57:30 GMT 40.953262 -105.368996 37,000 60 588 128
2018-02-21 03:57:25 GMT 40.945625 -105.386353 37,000 59 588 64
2018-02-21 03:57:20 GMT 40.939060 -105.401268 36,975 60 588 128
2018-02-21 03:57:15 GMT 40.933102 -105.414940 36,975 60 589 64
2018-02-21 03:57:12 GMT 40.928925 -105.424622 36,975 60 589 0
2018-02-21 03:57:08 GMT 40.924164 -105.435539 36,975 60 589 -64
2018-02-21 03:57:05 GMT 40.918900 -105.447693 36,975 60 590 -128
2018-02-21 03:57:02 GMT 40.914825 -105.457031 37,000 59 589 -128
2018-02-21 03:56:59 GMT 40.909882 -105.468262 37,000 59 589 -128
2018-02-21 03:56:51 GMT 40.899029 -105.492783 37,000 59 589 64
2018-02-21 03:56:48 GMT 40.896282 -105.498962 37,000 59 588 192
2018-02-21 03:56:43 GMT 40.888275 -105.517273 36,950 60 586 320
2018-02-21 03:56:40 GMT 40.885574 -105.523499 36,950 60 586 320
2018-02-21 03:56:37 GMT 40.881943 -105.531860 36,925 60 585 256
2018-02-21 03:56:30 GMT 40.871384 -105.556335 36,925 60 585 0
2018-02-21 03:56:27 GMT 40.868683 -105.562561 36,925 60 584 -64
2018-02-21 03:56:20 GMT 40.858200 -105.586670 36,975 60 583 -512
2018-02-21 03:56:16 GMT 40.854172 -105.595886 37,000 60 583 -576
2018-02-21 03:56:09 GMT 40.842636 -105.622375 37,050 60 578 -128
2018-02-21 03:56:06 GMT 40.840370 -105.627548 37,050 60 579 -192
2018-02-21 03:56:01 GMT 40.831970 -105.646851 37,050 60 579 -192
2018-02-21 03:55:58 GMT 40.829945 -105.651398 37,025 60 576 64
2018-02-21 03:55:54 GMT 40.824078 -105.664818 37,025 60 576 64
2018-02-21 03:55:49 GMT 40.817871 -105.679138 37,000 60 575 -64
2018-02-21 03:55:45 GMT 40.810959 -105.694946 37,000 59 575 -128
2018-02-21 03:55:39 GMT 40.804897 -105.708511 37,025 59 574 -256
2018-02-21 03:55:35 GMT 40.798050 -105.723877 37,050 59 574 -192
2018-02-21 03:55:29 GMT 40.790497 -105.740723 37,025 59 571 256
2018-02-21 03:55:26 GMT 40.786469 -105.749756 37,000 59 571 320
2018-02-21 03:55:23 GMT 40.782368 -105.759079 37,000 59 570 448
2018-02-21 03:55:17 GMT 40.774452 -105.777115 36,950 60 571 320
2018-02-21 03:55:07 GMT 40.762444 -105.804832 36,875 59 570 256
2018-02-21 03:55:04 GMT 40.756439 -105.818359 36,900 59 572 0
2018-02-21 03:54:57 GMT 40.748383 -105.836365 36,975 59 575 -512
2018-02-21 03:54:46 GMT 40.734371 -105.868256 37,050 60 578 -512
2018-02-21 03:54:36 GMT 40.720547 -105.899963 37,050 59 578 -128
2018-02-21 03:54:25 GMT 40.706161 -105.932175 36,975 59 581 64
2018-02-21 03:54:15 GMT 40.691498 -105.964317 37,000 59 582 128
2018-02-21 03:54:05 GMT 40.676971 -105.996590 36,975 59 581 128
2018-02-21 03:53:53 GMT 40.662140 -106.029785 36,975 59 582 0
2018-02-21 03:53:44 GMT 40.647675 -106.062134 36,975 59 582 64
2018-02-21 03:53:32 GMT 40.633678 -106.093536 36,975 59 581 0
2018-02-21 03:53:23 GMT 40.619064 -106.126160 37,000 59 581 -64
2018-02-21 03:53:11 GMT 40.605148 -106.157166 36,975 59 580 0
2018-02-21 03:53:02 GMT 40.591049 -106.188782 37,000 59 579 -64
2018-02-21 03:52:59 GMT 40.586975 -106.197937 37,000 59 579 -64
2018-02-21 03:52:50 GMT 40.576721 -106.221008 36,975 59 579 64
2018-02-21 03:52:41 GMT 40.562222 -106.253525 36,975 59 580 64
2018-02-21 03:52:38 GMT 40.559521 -106.259575 36,975 59 580 0
2018-02-21 03:52:29 GMT 40.546326 -106.289062 37,000 59 579 -128
2018-02-21 03:52:18 GMT 40.531635 -106.321312 37,025 59 578 -128
2018-02-21 03:52:09 GMT 40.519859 -106.347221 37,000 59 577 64
2018-02-21 03:51:57 GMT 40.503159 -106.384277 36,975 59 575 -64
2018-02-21 03:51:47 GMT 40.488995 -106.415817 37,000 59 574 -64
2018-02-21 03:51:36 GMT 40.475216 -106.446342 37,000 59 574 64
2018-02-21 03:51:25 GMT 40.460815 -106.478394 36,975 59 574 64
2018-02-21 03:51:17 GMT 40.448685 -106.505371 36,975 59 573 -64
2018-02-21 03:51:13 GMT 40.444771 -106.514015 36,975 59 573 -64
2018-02-21 03:51:04 GMT 40.432526 -106.541260 37,000 59 573 -64
2018-02-21 03:50:54 GMT 40.418518 -106.572327 36,975 59 573 64
2018-02-21 03:50:21 GMT 40.373734 -106.671127 37,000 59 575 -64
2018-02-21 03:50:08 GMT 40.356079 -106.709595 36,975 59 575 128
2018-02-21 03:50:01 GMT 40.347107 -106.729309 36,975 59 575 64
2018-02-21 03:49:50 GMT 40.331741 -106.763077 37,000 59 575 -128
2018-02-21 03:49:36 GMT 40.312283 -106.805397 37,000 58 574 64
2018-02-21 03:49:30 GMT 40.303436 -106.824371 37,000 58 574 128
2018-02-21 03:49:20 GMT 40.291306 -106.850891 36,975 59 573 -64
2018-02-21 03:49:09 GMT 40.276020 -106.884552 36,975 59 573 -64
2018-02-21 03:49:00 GMT 40.263123 -106.912453 37,025 58 575 -128
2018-02-21 03:48:49 GMT 40.248505 -106.943542 37,000 58 574 128
2018-02-21 03:48:37 GMT 40.232300 -106.978394 36,950 59 570 256
2018-02-21 03:48:27 GMT 40.218201 -107.009460 36,950 59 569 64
2018-02-21 03:48:18 GMT 40.206329 -107.035484 36,975 59 568 -128
2018-02-21 03:48:07 GMT 40.191879 -107.066895 37,000 59 566 -256
We lost coverage of the aircraft here for a total of 20 minutes
2018-02-21 03:27:38 GMT 38.534592 -110.471169 36,975 56 533 64
2018-02-21 03:27:28 GMT 38.522209 -110.494934 36,975 56 531 -64
2018-02-21 03:27:19 GMT 38.508774 -110.520790 36,975 56 532 -64
2018-02-21 03:27:11 GMT 38.498608 -110.540466 36,975 56 533 -128
2018-02-21 03:27:08 GMT 38.495117 -110.547302 36,975 56 533 -192
2018-02-21 03:26:58 GMT 38.481720 -110.573273 37,000 56 533 -128
2018-02-21 03:26:48 GMT 38.467419 -110.600769 36,975 56 533 320
2018-02-21 03:26:37 GMT 38.452660 -110.629089 36,850 56 534 1152
2018-02-21 03:26:27 GMT 38.439159 -110.655457 36,625 57 538 1408
We lost coverage of the aircraft here for a total of 10 minutes
2018-02-21 03:16:50 GMT 37.678116 -112.194489 34,975 61 537 0
2018-02-21 03:16:12 GMT 37.629044 -112.297516 35,000 61 537 0
2018-02-21 03:16:07 GMT 37.623146 -112.310966 35,000 61 537 0
2018-02-21 03:15:53 GMT 37.606480 -112.350845 34,975 63 538 -64
2018-02-21 03:15:50 GMT 37.602127 -112.361732 34,975 63 537 -64
2018-02-21 03:15:39 GMT 37.589813 -112.392471 35,000 63 537 -64
2018-02-21 03:15:27 GMT 37.578224 -112.421188 34,975 63 537 0
2018-02-21 03:15:17 GMT 37.566120 -112.451279 34,975 63 536 0
2018-02-21 03:15:05 GMT 37.553596 -112.482445 35,000 63 536 -64
2018-02-21 03:14:55 GMT 37.541214 -112.513016 35,000 63 535 -64
2018-02-21 03:14:44 GMT 37.528645 -112.544006 34,975 63 534 64
2018-02-21 03:14:33 GMT 37.517349 -112.571938 34,975 63 533 0
2018-02-21 03:14:24 GMT 37.506065 -112.599892 35,000 63 533 -64
2018-02-21 03:14:18 GMT 37.500481 -112.613686 35,000 63 533 -64
2018-02-21 03:14:12 GMT 37.492538 -112.633301 35,000 63 533 -64
2018-02-21 03:14:02 GMT 37.481441 -112.660614 35,000 63 533 0
2018-02-21 03:13:52 GMT 37.471153 -112.686050 35,000 63 533 0
2018-02-21 03:13:47 GMT 37.465256 -112.700676 34,975 63 533 0
2018-02-21 03:13:40 GMT 37.457512 -112.719666 34,975 63 533 0
2018-02-21 03:13:32 GMT 37.447769 -112.743683 35,000 62 533 -64
2018-02-21 03:13:19 GMT 37.434082 -112.777344 34,975 63 533 -64
2018-02-21 03:13:11 GMT 37.423855 -112.802422 35,000 62 533 -64
2018-02-21 03:13:07 GMT 37.421036 -112.809311 35,000 62 533 -64
2018-02-21 03:12:58 GMT 37.409241 -112.838249 35,000 62 532 0
2018-02-21 03:12:46 GMT 37.395554 -112.871803 35,000 62 532 0
2018-02-21 03:12:35 GMT 37.384872 -112.897903 35,000 62 531 -64

Making use of Plane Finder data

You are free to use the raw flight data, aircraft information and images provided in this report for your own purposes provided the data is correctly attributed to Plane Finder. We ask that you please credit Plane Finder and link to planefinder.net in close proximity to the content.

Optionally one of the following logos (no smaller then 150x24px) can be used and must link to planefinder.net

Embedding the Plane Finder map

You are welcome to embed the Plane Finder playback map on your website to offer visitors a more interactive experience. We suggest using the following HTML code:

<iframe src="//planefinder.net/data/report/BA280-G-ZBKK-7700-squawk-2018-02-21/map" width="800" height="600" seamless="seamless"></iframe>

Where our data comes from

Plane Finder has a global network of data feeds and antenna radars that receive data broadcast directly from aircraft. The primary technologies used are ADS-B and MLAT. We also show feeds from the FAA and a FLARM glider feed.

Click here to find out more about the Plane Finder network.

How we collect our data